<?xml version="1.0" encoding="UTF-8" standalone="no" ?>
<gpx xmlns="http://www.topografix.com/GPX/1/1" xmlns:xsi="http://www.w3.org/2001/XMLSchema-instance" xsi:schemaLocation="http://www.topografix.com/GPX/1/1 http://www.topografix.com/GPX/1/1/gpx.xsd" version="1.1" creator="VisuGPX - https://www.visugpx.com">
  <metadata>
    <name>Circuit 73km La Merlatière édité par cth85.com</name>
    <desc><![CDATA[Circuit 72 km La Merlatière

Les Herbiers, Le Gué Jourdain
Mouchamps  La Tranchais
St Vincent Sterlanges
St Cécile /La Côte des Bois
 St Martin des Noyers
La Merlatière => Boulogne
Les Drilliers/ Le Boucholet
Chauché / La Rabatelière
St Fulgent
Mesnard la Barotière
La Fournerie / L'Aurière
]]></desc>
  </metadata>
  <trk>
    <name><![CDATA[73km Merlatière on GPSies.com]]></name>
    <trkseg>
      <trkpt lat="46.86522" lon="-1.00516">
        <ele>120</ele>
        <time>2010-01-01T00:00:00Z</time>
      </trkpt>
      <trkpt lat="46.86475" lon="-1.00495">
        <ele>121</ele>
        <time>2010-01-01T00:00:19Z</time>
      </trkpt>
      <trkpt lat="46.86461" lon="-1.00568">
        <ele>122</ele>
        <time>2010-01-01T00:00:40Z</time>
      </trkpt>
      <trkpt lat="46.86387" lon="-1.00557">
        <ele>120</ele>
        <time>2010-01-01T00:01:10Z</time>
      </trkpt>
      <trkpt lat="46.86261" lon="-1.00664">
        <ele>118</ele>
        <time>2010-01-01T00:02:08Z</time>
      </trkpt>
      <trkpt lat="46.86129" lon="-1.00737">
        <ele>116</ele>
        <time>2010-01-01T00:03:04Z</time>
      </trkpt>
      <trkpt lat="46.86032" lon="-1.00832">
        <ele>115</ele>
        <time>2010-01-01T00:03:51Z</time>
      </trkpt>
      <trkpt lat="46.8599" lon="-1.00892">
        <ele>113</ele>
        <time>2010-01-01T00:04:15Z</time>
      </trkpt>
      <trkpt lat="46.85956" lon="-1.00967">
        <ele>113</ele>
        <time>2010-01-01T00:04:39Z</time>
      </trkpt>
      <trkpt lat="46.859" lon="-1.00943">
        <ele>114</ele>
        <time>2010-01-01T00:05:03Z</time>
      </trkpt>
      <trkpt lat="46.85865" lon="-1.00941">
        <ele>115</ele>
        <time>2010-01-01T00:05:17Z</time>
      </trkpt>
      <trkpt lat="46.85844" lon="-1.0096">
        <ele>113</ele>
        <time>2010-01-01T00:05:26Z</time>
      </trkpt>
      <trkpt lat="46.85818" lon="-1.0101">
        <ele>112</ele>
        <time>2010-01-01T00:05:44Z</time>
      </trkpt>
      <trkpt lat="46.85799" lon="-1.01166">
        <ele>110</ele>
        <time>2010-01-01T00:06:27Z</time>
      </trkpt>
      <trkpt lat="46.85825" lon="-1.01334">
        <ele>111</ele>
        <time>2010-01-01T00:07:14Z</time>
      </trkpt>
      <trkpt lat="46.85856" lon="-1.01443">
        <ele>110</ele>
        <time>2010-01-01T00:07:47Z</time>
      </trkpt>
      <trkpt lat="46.85925" lon="-1.01585">
        <ele>109</ele>
        <time>2010-01-01T00:08:34Z</time>
      </trkpt>
      <trkpt lat="46.85978" lon="-1.01739">
        <ele>110</ele>
        <time>2010-01-01T00:09:21Z</time>
      </trkpt>
      <trkpt lat="46.86068" lon="-1.01896">
        <ele>113</ele>
        <time>2010-01-01T00:10:17Z</time>
      </trkpt>
      <trkpt lat="46.86082" lon="-1.01907">
        <ele>113</ele>
        <time>2010-01-01T00:10:24Z</time>
      </trkpt>
      <trkpt lat="46.86024" lon="-1.01954">
        <ele>114</ele>
        <time>2010-01-01T00:10:50Z</time>
      </trkpt>
      <trkpt lat="46.85956" lon="-1.02008">
        <ele>111</ele>
        <time>2010-01-01T00:11:21Z</time>
      </trkpt>
      <trkpt lat="46.8592" lon="-1.02063">
        <ele>109</ele>
        <time>2010-01-01T00:11:42Z</time>
      </trkpt>
      <trkpt lat="46.85907" lon="-1.02092">
        <ele>108</ele>
        <time>2010-01-01T00:11:52Z</time>
      </trkpt>
      <trkpt lat="46.85902" lon="-1.02149">
        <ele>109</ele>
        <time>2010-01-01T00:12:08Z</time>
      </trkpt>
      <trkpt lat="46.85843" lon="-1.02256">
        <ele>110</ele>
        <time>2010-01-01T00:12:45Z</time>
      </trkpt>
      <trkpt lat="46.85846" lon="-1.02267">
        <ele>111</ele>
        <time>2010-01-01T00:12:48Z</time>
      </trkpt>
      <trkpt lat="46.85842" lon="-1.02274">
        <ele>111</ele>
        <time>2010-01-01T00:12:51Z</time>
      </trkpt>
      <trkpt lat="46.85911" lon="-1.02395">
        <ele>111</ele>
        <time>2010-01-01T00:13:34Z</time>
      </trkpt>
      <trkpt lat="46.85941" lon="-1.02452">
        <ele>112</ele>
        <time>2010-01-01T00:13:54Z</time>
      </trkpt>
      <trkpt lat="46.85956" lon="-1.02458">
        <ele>113</ele>
        <time>2010-01-01T00:14:00Z</time>
      </trkpt>
      <trkpt lat="46.8596" lon="-1.02466">
        <ele>113</ele>
        <time>2010-01-01T00:14:03Z</time>
      </trkpt>
      <trkpt lat="46.85804" lon="-1.02642">
        <ele>110</ele>
        <time>2010-01-01T00:15:22Z</time>
      </trkpt>
      <trkpt lat="46.85799" lon="-1.02655">
        <ele>110</ele>
        <time>2010-01-01T00:15:26Z</time>
      </trkpt>
      <trkpt lat="46.85798" lon="-1.02686">
        <ele>108</ele>
        <time>2010-01-01T00:15:34Z</time>
      </trkpt>
      <trkpt lat="46.85825" lon="-1.02727">
        <ele>108</ele>
        <time>2010-01-01T00:15:50Z</time>
      </trkpt>
      <trkpt lat="46.85831" lon="-1.02743">
        <ele>108</ele>
        <time>2010-01-01T00:15:55Z</time>
      </trkpt>
      <trkpt lat="46.85851" lon="-1.02881">
        <ele>108</ele>
        <time>2010-01-01T00:16:33Z</time>
      </trkpt>
      <trkpt lat="46.8586" lon="-1.02936">
        <ele>109</ele>
        <time>2010-01-01T00:16:49Z</time>
      </trkpt>
      <trkpt lat="46.85888" lon="-1.03048">
        <ele>109</ele>
        <time>2010-01-01T00:17:21Z</time>
      </trkpt>
      <trkpt lat="46.85897" lon="-1.03129">
        <ele>108</ele>
        <time>2010-01-01T00:17:44Z</time>
      </trkpt>
      <trkpt lat="46.8591" lon="-1.03187">
        <ele>108</ele>
        <time>2010-01-01T00:18:01Z</time>
      </trkpt>
      <trkpt lat="46.85959" lon="-1.03358">
        <ele>110</ele>
        <time>2010-01-01T00:18:51Z</time>
      </trkpt>
      <trkpt lat="46.85971" lon="-1.03384">
        <ele>110</ele>
        <time>2010-01-01T00:19:00Z</time>
      </trkpt>
      <trkpt lat="46.85871" lon="-1.03554">
        <ele>107</ele>
        <time>2010-01-01T00:20:01Z</time>
      </trkpt>
      <trkpt lat="46.85856" lon="-1.03674">
        <ele>107</ele>
        <time>2010-01-01T00:20:35Z</time>
      </trkpt>
      <trkpt lat="46.85771" lon="-1.03629">
        <ele>104</ele>
        <time>2010-01-01T00:21:11Z</time>
      </trkpt>
      <trkpt lat="46.8575" lon="-1.0362">
        <ele>105</ele>
        <time>2010-01-01T00:21:20Z</time>
      </trkpt>
      <trkpt lat="46.85701" lon="-1.03624">
        <ele>104</ele>
        <time>2010-01-01T00:21:39Z</time>
      </trkpt>
      <trkpt lat="46.85443" lon="-1.037">
        <ele>97</ele>
        <time>2010-01-01T00:23:25Z</time>
      </trkpt>
      <trkpt lat="46.85305" lon="-1.03735">
        <ele>95</ele>
        <time>2010-01-01T00:24:21Z</time>
      </trkpt>
      <trkpt lat="46.85244" lon="-1.03756">
        <ele>93</ele>
        <time>2010-01-01T00:24:46Z</time>
      </trkpt>
      <trkpt lat="46.85228" lon="-1.03771">
        <ele>93</ele>
        <time>2010-01-01T00:24:53Z</time>
      </trkpt>
      <trkpt lat="46.85185" lon="-1.03834">
        <ele>92</ele>
        <time>2010-01-01T00:25:18Z</time>
      </trkpt>
      <trkpt lat="46.85129" lon="-1.03931">
        <ele>95</ele>
        <time>2010-01-01T00:25:53Z</time>
      </trkpt>
      <trkpt lat="46.851" lon="-1.03969">
        <ele>93</ele>
        <time>2010-01-01T00:26:08Z</time>
      </trkpt>
      <trkpt lat="46.8504" lon="-1.04041">
        <ele>94</ele>
        <time>2010-01-01T00:26:39Z</time>
      </trkpt>
      <trkpt lat="46.8491" lon="-1.04181">
        <ele>97</ele>
        <time>2010-01-01T00:27:44Z</time>
      </trkpt>
      <trkpt lat="46.84896" lon="-1.04198">
        <ele>98</ele>
        <time>2010-01-01T00:27:51Z</time>
      </trkpt>
      <trkpt lat="46.84888" lon="-1.04222">
        <ele>98</ele>
        <time>2010-01-01T00:27:58Z</time>
      </trkpt>
      <trkpt lat="46.84871" lon="-1.04238">
        <ele>98</ele>
        <time>2010-01-01T00:28:07Z</time>
      </trkpt>
      <trkpt lat="46.84869" lon="-1.04254">
        <ele>98</ele>
        <time>2010-01-01T00:28:11Z</time>
      </trkpt>
      <trkpt lat="46.84861" lon="-1.04265">
        <ele>98</ele>
        <time>2010-01-01T00:28:15Z</time>
      </trkpt>
      <trkpt lat="46.84848" lon="-1.04267">
        <ele>98</ele>
        <time>2010-01-01T00:28:21Z</time>
      </trkpt>
      <trkpt lat="46.84833" lon="-1.04257">
        <ele>98</ele>
        <time>2010-01-01T00:28:27Z</time>
      </trkpt>
      <trkpt lat="46.84814" lon="-1.04264">
        <ele>98</ele>
        <time>2010-01-01T00:28:35Z</time>
      </trkpt>
      <trkpt lat="46.84803" lon="-1.04288">
        <ele>97</ele>
        <time>2010-01-01T00:28:43Z</time>
      </trkpt>
      <trkpt lat="46.84776" lon="-1.04315">
        <ele>98</ele>
        <time>2010-01-01T00:28:56Z</time>
      </trkpt>
      <trkpt lat="46.84684" lon="-1.04375">
        <ele>101</ele>
        <time>2010-01-01T00:29:36Z</time>
      </trkpt>
      <trkpt lat="46.84618" lon="-1.04429">
        <ele>101</ele>
        <time>2010-01-01T00:30:07Z</time>
      </trkpt>
      <trkpt lat="46.84553" lon="-1.04494">
        <ele>104</ele>
        <time>2010-01-01T00:30:38Z</time>
      </trkpt>
      <trkpt lat="46.84469" lon="-1.04634">
        <ele>108</ele>
        <time>2010-01-01T00:31:29Z</time>
      </trkpt>
      <trkpt lat="46.84367" lon="-1.04707">
        <ele>108</ele>
        <time>2010-01-01T00:32:15Z</time>
      </trkpt>
      <trkpt lat="46.84357" lon="-1.0474">
        <ele>107</ele>
        <time>2010-01-01T00:32:25Z</time>
      </trkpt>
      <trkpt lat="46.84342" lon="-1.04769">
        <ele>107</ele>
        <time>2010-01-01T00:32:34Z</time>
      </trkpt>
      <trkpt lat="46.84283" lon="-1.04845">
        <ele>102</ele>
        <time>2010-01-01T00:33:06Z</time>
      </trkpt>
      <trkpt lat="46.84254" lon="-1.04858">
        <ele>102</ele>
        <time>2010-01-01T00:33:18Z</time>
      </trkpt>
      <trkpt lat="46.84004" lon="-1.05017">
        <ele>95</ele>
        <time>2010-01-01T00:35:07Z</time>
      </trkpt>
      <trkpt lat="46.83967" lon="-1.05036">
        <ele>92</ele>
        <time>2010-01-01T00:35:23Z</time>
      </trkpt>
      <trkpt lat="46.83807" lon="-1.05081">
        <ele>95</ele>
        <time>2010-01-01T00:36:28Z</time>
      </trkpt>
      <trkpt lat="46.83721" lon="-1.05134">
        <ele>97</ele>
        <time>2010-01-01T00:37:05Z</time>
      </trkpt>
      <trkpt lat="46.83525" lon="-1.05173">
        <ele>106</ele>
        <time>2010-01-01T00:38:25Z</time>
      </trkpt>
      <trkpt lat="46.83432" lon="-1.05199">
        <ele>108</ele>
        <time>2010-01-01T00:39:03Z</time>
      </trkpt>
      <trkpt lat="46.83315" lon="-1.05245">
        <ele>106</ele>
        <time>2010-01-01T00:39:51Z</time>
      </trkpt>
      <trkpt lat="46.83289" lon="-1.05117">
        <ele>104</ele>
        <time>2010-01-01T00:40:28Z</time>
      </trkpt>
      <trkpt lat="46.83085" lon="-1.05181">
        <ele>101</ele>
        <time>2010-01-01T00:41:51Z</time>
      </trkpt>
      <trkpt lat="46.82898" lon="-1.05221">
        <ele>103</ele>
        <time>2010-01-01T00:43:07Z</time>
      </trkpt>
      <trkpt lat="46.8263" lon="-1.05343">
        <ele>109</ele>
        <time>2010-01-01T00:44:59Z</time>
      </trkpt>
      <trkpt lat="46.81987" lon="-1.05653">
        <ele>112</ele>
        <time>2010-01-01T00:49:30Z</time>
      </trkpt>
      <trkpt lat="46.81922" lon="-1.05676">
        <ele>106</ele>
        <time>2010-01-01T00:49:57Z</time>
      </trkpt>
      <trkpt lat="46.81888" lon="-1.05681">
        <ele>104</ele>
        <time>2010-01-01T00:50:11Z</time>
      </trkpt>
      <trkpt lat="46.8165" lon="-1.05652">
        <ele>105</ele>
        <time>2010-01-01T00:51:46Z</time>
      </trkpt>
      <trkpt lat="46.81571" lon="-1.05638">
        <ele>105</ele>
        <time>2010-01-01T00:52:18Z</time>
      </trkpt>
      <trkpt lat="46.81237" lon="-1.05502">
        <ele>105</ele>
        <time>2010-01-01T00:54:37Z</time>
      </trkpt>
      <trkpt lat="46.81087" lon="-1.05465">
        <ele>104</ele>
        <time>2010-01-01T00:55:38Z</time>
      </trkpt>
      <trkpt lat="46.81008" lon="-1.05457">
        <ele>102</ele>
        <time>2010-01-01T00:56:10Z</time>
      </trkpt>
      <trkpt lat="46.80932" lon="-1.05428">
        <ele>99</ele>
        <time>2010-01-01T00:56:41Z</time>
      </trkpt>
      <trkpt lat="46.80896" lon="-1.05428">
        <ele>98</ele>
        <time>2010-01-01T00:56:55Z</time>
      </trkpt>
      <trkpt lat="46.80867" lon="-1.0544">
        <ele>97</ele>
        <time>2010-01-01T00:57:07Z</time>
      </trkpt>
      <trkpt lat="46.80849" lon="-1.05453">
        <ele>96</ele>
        <time>2010-01-01T00:57:15Z</time>
      </trkpt>
      <trkpt lat="46.80725" lon="-1.05599">
        <ele>92</ele>
        <time>2010-01-01T00:58:19Z</time>
      </trkpt>
      <trkpt lat="46.80591" lon="-1.05724">
        <ele>95</ele>
        <time>2010-01-01T00:59:23Z</time>
      </trkpt>
      <trkpt lat="46.80527" lon="-1.05819">
        <ele>94</ele>
        <time>2010-01-01T00:59:59Z</time>
      </trkpt>
      <trkpt lat="46.80507" lon="-1.05839">
        <ele>94</ele>
        <time>2010-01-01T01:00:09Z</time>
      </trkpt>
      <trkpt lat="46.80445" lon="-1.0588">
        <ele>91</ele>
        <time>2010-01-01T01:00:36Z</time>
      </trkpt>
      <trkpt lat="46.80366" lon="-1.05898">
        <ele>92</ele>
        <time>2010-01-01T01:01:08Z</time>
      </trkpt>
      <trkpt lat="46.80292" lon="-1.05949">
        <ele>91</ele>
        <time>2010-01-01T01:01:41Z</time>
      </trkpt>
      <trkpt lat="46.80262" lon="-1.05951">
        <ele>91</ele>
        <time>2010-01-01T01:01:53Z</time>
      </trkpt>
      <trkpt lat="46.80134" lon="-1.05911">
        <ele>94</ele>
        <time>2010-01-01T01:02:46Z</time>
      </trkpt>
      <trkpt lat="46.80105" lon="-1.05907">
        <ele>94</ele>
        <time>2010-01-01T01:02:57Z</time>
      </trkpt>
      <trkpt lat="46.80063" lon="-1.05919">
        <ele>93</ele>
        <time>2010-01-01T01:03:14Z</time>
      </trkpt>
      <trkpt lat="46.8005" lon="-1.0593">
        <ele>93</ele>
        <time>2010-01-01T01:03:20Z</time>
      </trkpt>
      <trkpt lat="46.80011" lon="-1.05982">
        <ele>93</ele>
        <time>2010-01-01T01:03:41Z</time>
      </trkpt>
      <trkpt lat="46.79889" lon="-1.06152">
        <ele>91</ele>
        <time>2010-01-01T01:04:49Z</time>
      </trkpt>
      <trkpt lat="46.7985" lon="-1.06176">
        <ele>92</ele>
        <time>2010-01-01T01:05:06Z</time>
      </trkpt>
      <trkpt lat="46.79738" lon="-1.06196">
        <ele>93</ele>
        <time>2010-01-01T01:05:51Z</time>
      </trkpt>
      <trkpt lat="46.79668" lon="-1.06228">
        <ele>92</ele>
        <time>2010-01-01T01:06:20Z</time>
      </trkpt>
      <trkpt lat="46.79519" lon="-1.06301">
        <ele>88</ele>
        <time>2010-01-01T01:07:23Z</time>
      </trkpt>
      <trkpt lat="46.79491" lon="-1.06312">
        <ele>89</ele>
        <time>2010-01-01T01:07:35Z</time>
      </trkpt>
      <trkpt lat="46.79456" lon="-1.06312">
        <ele>90</ele>
        <time>2010-01-01T01:07:49Z</time>
      </trkpt>
      <trkpt lat="46.7838" lon="-1.06054">
        <ele>101</ele>
        <time>2010-01-01T01:15:05Z</time>
      </trkpt>
      <trkpt lat="46.78327" lon="-1.06038">
        <ele>100</ele>
        <time>2010-01-01T01:15:27Z</time>
      </trkpt>
      <trkpt lat="46.78312" lon="-1.06055">
        <ele>100</ele>
        <time>2010-01-01T01:15:35Z</time>
      </trkpt>
      <trkpt lat="46.78157" lon="-1.06181">
        <ele>100</ele>
        <time>2010-01-01T01:16:46Z</time>
      </trkpt>
      <trkpt lat="46.78088" lon="-1.06203">
        <ele>98</ele>
        <time>2010-01-01T01:17:14Z</time>
      </trkpt>
      <trkpt lat="46.7801" lon="-1.06263">
        <ele>98</ele>
        <time>2010-01-01T01:17:49Z</time>
      </trkpt>
      <trkpt lat="46.77956" lon="-1.06287">
        <ele>99</ele>
        <time>2010-01-01T01:18:12Z</time>
      </trkpt>
      <trkpt lat="46.77901" lon="-1.06278">
        <ele>96</ele>
        <time>2010-01-01T01:18:34Z</time>
      </trkpt>
      <trkpt lat="46.77859" lon="-1.063">
        <ele>94</ele>
        <time>2010-01-01T01:18:52Z</time>
      </trkpt>
      <trkpt lat="46.77812" lon="-1.06382">
        <ele>95</ele>
        <time>2010-01-01T01:19:21Z</time>
      </trkpt>
      <trkpt lat="46.77729" lon="-1.06474">
        <ele>93</ele>
        <time>2010-01-01T01:20:03Z</time>
      </trkpt>
      <trkpt lat="46.77704" lon="-1.06495">
        <ele>92</ele>
        <time>2010-01-01T01:20:14Z</time>
      </trkpt>
      <trkpt lat="46.77692" lon="-1.06518">
        <ele>92</ele>
        <time>2010-01-01T01:20:22Z</time>
      </trkpt>
      <trkpt lat="46.77667" lon="-1.0655">
        <ele>92</ele>
        <time>2010-01-01T01:20:36Z</time>
      </trkpt>
      <trkpt lat="46.77466" lon="-1.06778">
        <ele>85</ele>
        <time>2010-01-01T01:22:18Z</time>
      </trkpt>
      <trkpt lat="46.77429" lon="-1.06825">
        <ele>85</ele>
        <time>2010-01-01T01:22:37Z</time>
      </trkpt>
      <trkpt lat="46.77283" lon="-1.07052">
        <ele>83</ele>
        <time>2010-01-01T01:24:03Z</time>
      </trkpt>
      <trkpt lat="46.7726" lon="-1.07105">
        <ele>81</ele>
        <time>2010-01-01T01:24:20Z</time>
      </trkpt>
      <trkpt lat="46.77244" lon="-1.07167">
        <ele>79</ele>
        <time>2010-01-01T01:24:38Z</time>
      </trkpt>
      <trkpt lat="46.77227" lon="-1.07176">
        <ele>79</ele>
        <time>2010-01-01T01:24:45Z</time>
      </trkpt>
      <trkpt lat="46.77157" lon="-1.07249">
        <ele>78</ele>
        <time>2010-01-01T01:25:20Z</time>
      </trkpt>
      <trkpt lat="46.77134" lon="-1.07257">
        <ele>77</ele>
        <time>2010-01-01T01:25:29Z</time>
      </trkpt>
      <trkpt lat="46.76615" lon="-1.07289">
        <ele>75</ele>
        <time>2010-01-01T01:28:57Z</time>
      </trkpt>
      <trkpt lat="46.76527" lon="-1.07289">
        <ele>76</ele>
        <time>2010-01-01T01:29:32Z</time>
      </trkpt>
      <trkpt lat="46.76428" lon="-1.07283">
        <ele>71</ele>
        <time>2010-01-01T01:30:12Z</time>
      </trkpt>
      <trkpt lat="46.76056" lon="-1.07243">
        <ele>60</ele>
        <time>2010-01-01T01:32:41Z</time>
      </trkpt>
      <trkpt lat="46.75681" lon="-1.07199">
        <ele>71</ele>
        <time>2010-01-01T01:35:12Z</time>
      </trkpt>
      <trkpt lat="46.75693" lon="-1.0727">
        <ele>69</ele>
        <time>2010-01-01T01:35:32Z</time>
      </trkpt>
      <trkpt lat="46.75675" lon="-1.07283">
        <ele>70</ele>
        <time>2010-01-01T01:35:40Z</time>
      </trkpt>
      <trkpt lat="46.75641" lon="-1.07327">
        <ele>70</ele>
        <time>2010-01-01T01:35:58Z</time>
      </trkpt>
      <trkpt lat="46.75633" lon="-1.07332">
        <ele>70</ele>
        <time>2010-01-01T01:36:02Z</time>
      </trkpt>
      <trkpt lat="46.75598" lon="-1.07333">
        <ele>72</ele>
        <time>2010-01-01T01:36:16Z</time>
      </trkpt>
      <trkpt lat="46.75592" lon="-1.07347">
        <ele>71</ele>
        <time>2010-01-01T01:36:20Z</time>
      </trkpt>
      <trkpt lat="46.75539" lon="-1.07413">
        <ele>68</ele>
        <time>2010-01-01T01:36:48Z</time>
      </trkpt>
      <trkpt lat="46.75475" lon="-1.07567">
        <ele>59</ele>
        <time>2010-01-01T01:37:37Z</time>
      </trkpt>
      <trkpt lat="46.75441" lon="-1.07626">
        <ele>59</ele>
        <time>2010-01-01T01:37:59Z</time>
      </trkpt>
      <trkpt lat="46.754" lon="-1.07695">
        <ele>58</ele>
        <time>2010-01-01T01:38:24Z</time>
      </trkpt>
      <trkpt lat="46.75336" lon="-1.07781">
        <ele>60</ele>
        <time>2010-01-01T01:38:58Z</time>
      </trkpt>
      <trkpt lat="46.75291" lon="-1.07818">
        <ele>63</ele>
        <time>2010-01-01T01:39:19Z</time>
      </trkpt>
      <trkpt lat="46.75229" lon="-1.07835">
        <ele>65</ele>
        <time>2010-01-01T01:39:44Z</time>
      </trkpt>
      <trkpt lat="46.75129" lon="-1.07912">
        <ele>61</ele>
        <time>2010-01-01T01:40:30Z</time>
      </trkpt>
      <trkpt lat="46.75049" lon="-1.07964">
        <ele>56</ele>
        <time>2010-01-01T01:41:05Z</time>
      </trkpt>
      <trkpt lat="46.75002" lon="-1.08012">
        <ele>55</ele>
        <time>2010-01-01T01:41:28Z</time>
      </trkpt>
      <trkpt lat="46.74974" lon="-1.08021">
        <ele>56</ele>
        <time>2010-01-01T01:41:39Z</time>
      </trkpt>
      <trkpt lat="46.7488" lon="-1.08015">
        <ele>62</ele>
        <time>2010-01-01T01:42:17Z</time>
      </trkpt>
      <trkpt lat="46.74797" lon="-1.08028">
        <ele>64</ele>
        <time>2010-01-01T01:42:50Z</time>
      </trkpt>
      <trkpt lat="46.74771" lon="-1.08026">
        <ele>63</ele>
        <time>2010-01-01T01:43:01Z</time>
      </trkpt>
      <trkpt lat="46.74687" lon="-1.07999">
        <ele>60</ele>
        <time>2010-01-01T01:43:35Z</time>
      </trkpt>
      <trkpt lat="46.74675" lon="-1.07991">
        <ele>60</ele>
        <time>2010-01-01T01:43:40Z</time>
      </trkpt>
      <trkpt lat="46.74653" lon="-1.07957">
        <ele>60</ele>
        <time>2010-01-01T01:43:53Z</time>
      </trkpt>
      <trkpt lat="46.7461" lon="-1.07992">
        <ele>59</ele>
        <time>2010-01-01T01:44:13Z</time>
      </trkpt>
      <trkpt lat="46.74441" lon="-1.08063">
        <ele>59</ele>
        <time>2010-01-01T01:45:23Z</time>
      </trkpt>
      <trkpt lat="46.74236" lon="-1.0817">
        <ele>64</ele>
        <time>2010-01-01T01:46:50Z</time>
      </trkpt>
      <trkpt lat="46.74119" lon="-1.08315">
        <ele>67</ele>
        <time>2010-01-01T01:47:52Z</time>
      </trkpt>
      <trkpt lat="46.74104" lon="-1.08363">
        <ele>68</ele>
        <time>2010-01-01T01:48:06Z</time>
      </trkpt>
      <trkpt lat="46.74097" lon="-1.08399">
        <ele>68</ele>
        <time>2010-01-01T01:48:17Z</time>
      </trkpt>
      <trkpt lat="46.74089" lon="-1.08473">
        <ele>69</ele>
        <time>2010-01-01T01:48:37Z</time>
      </trkpt>
      <trkpt lat="46.7404" lon="-1.08559">
        <ele>72</ele>
        <time>2010-01-01T01:49:08Z</time>
      </trkpt>
      <trkpt lat="46.7401" lon="-1.08624">
        <ele>74</ele>
        <time>2010-01-01T01:49:29Z</time>
      </trkpt>
      <trkpt lat="46.74001" lon="-1.08618">
        <ele>74</ele>
        <time>2010-01-01T01:49:33Z</time>
      </trkpt>
      <trkpt lat="46.73948" lon="-1.08854">
        <ele>70</ele>
        <time>2010-01-01T01:50:41Z</time>
      </trkpt>
      <trkpt lat="46.73923" lon="-1.09123">
        <ele>64</ele>
        <time>2010-01-01T01:51:56Z</time>
      </trkpt>
      <trkpt lat="46.73915" lon="-1.09174">
        <ele>64</ele>
        <time>2010-01-01T01:52:10Z</time>
      </trkpt>
      <trkpt lat="46.73909" lon="-1.09201">
        <ele>64</ele>
        <time>2010-01-01T01:52:18Z</time>
      </trkpt>
      <trkpt lat="46.7384" lon="-1.09402">
        <ele>63</ele>
        <time>2010-01-01T01:53:20Z</time>
      </trkpt>
      <trkpt lat="46.73845" lon="-1.09446">
        <ele>62</ele>
        <time>2010-01-01T01:53:32Z</time>
      </trkpt>
      <trkpt lat="46.73863" lon="-1.09516">
        <ele>60</ele>
        <time>2010-01-01T01:53:52Z</time>
      </trkpt>
      <trkpt lat="46.73867" lon="-1.09549">
        <ele>59</ele>
        <time>2010-01-01T01:54:02Z</time>
      </trkpt>
      <trkpt lat="46.73867" lon="-1.0962">
        <ele>61</ele>
        <time>2010-01-01T01:54:21Z</time>
      </trkpt>
      <trkpt lat="46.73857" lon="-1.09808">
        <ele>65</ele>
        <time>2010-01-01T01:55:13Z</time>
      </trkpt>
      <trkpt lat="46.73829" lon="-1.09925">
        <ele>70</ele>
        <time>2010-01-01T01:55:47Z</time>
      </trkpt>
      <trkpt lat="46.73827" lon="-1.09989">
        <ele>71</ele>
        <time>2010-01-01T01:56:04Z</time>
      </trkpt>
      <trkpt lat="46.73833" lon="-1.10052">
        <ele>70</ele>
        <time>2010-01-01T01:56:22Z</time>
      </trkpt>
      <trkpt lat="46.73858" lon="-1.1019">
        <ele>67</ele>
        <time>2010-01-01T01:57:01Z</time>
      </trkpt>
      <trkpt lat="46.73884" lon="-1.10265">
        <ele>64</ele>
        <time>2010-01-01T01:57:24Z</time>
      </trkpt>
      <trkpt lat="46.73914" lon="-1.10317">
        <ele>61</ele>
        <time>2010-01-01T01:57:43Z</time>
      </trkpt>
      <trkpt lat="46.74022" lon="-1.10443">
        <ele>56</ele>
        <time>2010-01-01T01:58:38Z</time>
      </trkpt>
      <trkpt lat="46.74125" lon="-1.10591">
        <ele>55</ele>
        <time>2010-01-01T01:59:36Z</time>
      </trkpt>
      <trkpt lat="46.74143" lon="-1.10626">
        <ele>55</ele>
        <time>2010-01-01T01:59:48Z</time>
      </trkpt>
      <trkpt lat="46.74238" lon="-1.10895">
        <ele>54</ele>
        <time>2010-01-01T02:01:11Z</time>
      </trkpt>
      <trkpt lat="46.743" lon="-1.11045">
        <ele>54</ele>
        <time>2010-01-01T02:01:59Z</time>
      </trkpt>
      <trkpt lat="46.74317" lon="-1.1108">
        <ele>54</ele>
        <time>2010-01-01T02:02:11Z</time>
      </trkpt>
      <trkpt lat="46.7437" lon="-1.11149">
        <ele>54</ele>
        <time>2010-01-01T02:02:39Z</time>
      </trkpt>
      <trkpt lat="46.74387" lon="-1.11187">
        <ele>54</ele>
        <time>2010-01-01T02:02:52Z</time>
      </trkpt>
      <trkpt lat="46.74404" lon="-1.11275">
        <ele>54</ele>
        <time>2010-01-01T02:03:17Z</time>
      </trkpt>
      <trkpt lat="46.74389" lon="-1.11351">
        <ele>54</ele>
        <time>2010-01-01T02:03:38Z</time>
      </trkpt>
      <trkpt lat="46.744" lon="-1.11397">
        <ele>54</ele>
        <time>2010-01-01T02:03:52Z</time>
      </trkpt>
      <trkpt lat="46.74399" lon="-1.11432">
        <ele>54</ele>
        <time>2010-01-01T02:04:01Z</time>
      </trkpt>
      <trkpt lat="46.74366" lon="-1.11421">
        <ele>53</ele>
        <time>2010-01-01T02:04:15Z</time>
      </trkpt>
      <trkpt lat="46.74321" lon="-1.11418">
        <ele>54</ele>
        <time>2010-01-01T02:04:33Z</time>
      </trkpt>
      <trkpt lat="46.74307" lon="-1.11446">
        <ele>54</ele>
        <time>2010-01-01T02:04:43Z</time>
      </trkpt>
      <trkpt lat="46.74104" lon="-1.11625">
        <ele>54</ele>
        <time>2010-01-01T02:06:17Z</time>
      </trkpt>
      <trkpt lat="46.7371" lon="-1.12046">
        <ele>52</ele>
        <time>2010-01-01T02:09:33Z</time>
      </trkpt>
      <trkpt lat="46.73686" lon="-1.12077">
        <ele>49</ele>
        <time>2010-01-01T02:09:46Z</time>
      </trkpt>
      <trkpt lat="46.73463" lon="-1.1244">
        <ele>46</ele>
        <time>2010-01-01T02:12:00Z</time>
      </trkpt>
      <trkpt lat="46.73434" lon="-1.12509">
        <ele>46</ele>
        <time>2010-01-01T02:12:22Z</time>
      </trkpt>
      <trkpt lat="46.73393" lon="-1.12639">
        <ele>45</ele>
        <time>2010-01-01T02:13:01Z</time>
      </trkpt>
      <trkpt lat="46.73384" lon="-1.12658">
        <ele>45</ele>
        <time>2010-01-01T02:13:07Z</time>
      </trkpt>
      <trkpt lat="46.73292" lon="-1.12933">
        <ele>47</ele>
        <time>2010-01-01T02:14:31Z</time>
      </trkpt>
      <trkpt lat="46.73286" lon="-1.12972">
        <ele>47</ele>
        <time>2010-01-01T02:14:42Z</time>
      </trkpt>
      <trkpt lat="46.73261" lon="-1.13336">
        <ele>48</ele>
        <time>2010-01-01T02:16:23Z</time>
      </trkpt>
      <trkpt lat="46.73254" lon="-1.13382">
        <ele>50</ele>
        <time>2010-01-01T02:16:36Z</time>
      </trkpt>
      <trkpt lat="46.73231" lon="-1.13469">
        <ele>54</ele>
        <time>2010-01-01T02:17:01Z</time>
      </trkpt>
      <trkpt lat="46.73073" lon="-1.14036">
        <ele>76</ele>
        <time>2010-01-01T02:19:49Z</time>
      </trkpt>
      <trkpt lat="46.73071" lon="-1.14089">
        <ele>78</ele>
        <time>2010-01-01T02:20:04Z</time>
      </trkpt>
      <trkpt lat="46.73078" lon="-1.14124">
        <ele>81</ele>
        <time>2010-01-01T02:20:14Z</time>
      </trkpt>
      <trkpt lat="46.73096" lon="-1.14159">
        <ele>82</ele>
        <time>2010-01-01T02:20:26Z</time>
      </trkpt>
      <trkpt lat="46.73126" lon="-1.14198">
        <ele>81</ele>
        <time>2010-01-01T02:20:42Z</time>
      </trkpt>
      <trkpt lat="46.73139" lon="-1.14228">
        <ele>81</ele>
        <time>2010-01-01T02:20:51Z</time>
      </trkpt>
      <trkpt lat="46.73142" lon="-1.1427">
        <ele>83</ele>
        <time>2010-01-01T02:21:03Z</time>
      </trkpt>
      <trkpt lat="46.73134" lon="-1.14301">
        <ele>85</ele>
        <time>2010-01-01T02:21:12Z</time>
      </trkpt>
      <trkpt lat="46.73118" lon="-1.14332">
        <ele>88</ele>
        <time>2010-01-01T02:21:23Z</time>
      </trkpt>
      <trkpt lat="46.73097" lon="-1.14349">
        <ele>90</ele>
        <time>2010-01-01T02:21:32Z</time>
      </trkpt>
      <trkpt lat="46.73076" lon="-1.14353">
        <ele>91</ele>
        <time>2010-01-01T02:21:41Z</time>
      </trkpt>
      <trkpt lat="46.7296" lon="-1.14331">
        <ele>97</ele>
        <time>2010-01-01T02:22:28Z</time>
      </trkpt>
      <trkpt lat="46.72936" lon="-1.14333">
        <ele>98</ele>
        <time>2010-01-01T02:22:37Z</time>
      </trkpt>
      <trkpt lat="46.72898" lon="-1.14353">
        <ele>100</ele>
        <time>2010-01-01T02:22:54Z</time>
      </trkpt>
      <trkpt lat="46.72867" lon="-1.14388">
        <ele>101</ele>
        <time>2010-01-01T02:23:09Z</time>
      </trkpt>
      <trkpt lat="46.72854" lon="-1.1442">
        <ele>103</ele>
        <time>2010-01-01T02:23:19Z</time>
      </trkpt>
      <trkpt lat="46.72845" lon="-1.14455">
        <ele>103</ele>
        <time>2010-01-01T02:23:30Z</time>
      </trkpt>
      <trkpt lat="46.72757" lon="-1.15006">
        <ele>88</ele>
        <time>2010-01-01T02:26:05Z</time>
      </trkpt>
      <trkpt lat="46.72747" lon="-1.15036">
        <ele>87</ele>
        <time>2010-01-01T02:26:14Z</time>
      </trkpt>
      <trkpt lat="46.72665" lon="-1.15214">
        <ele>81</ele>
        <time>2010-01-01T02:27:13Z</time>
      </trkpt>
      <trkpt lat="46.7259" lon="-1.15403">
        <ele>86</ele>
        <time>2010-01-01T02:28:13Z</time>
      </trkpt>
      <trkpt lat="46.72534" lon="-1.15553">
        <ele>89</ele>
        <time>2010-01-01T02:29:00Z</time>
      </trkpt>
      <trkpt lat="46.72494" lon="-1.15696">
        <ele>93</ele>
        <time>2010-01-01T02:29:42Z</time>
      </trkpt>
      <trkpt lat="46.72415" lon="-1.16055">
        <ele>99</ele>
        <time>2010-01-01T02:31:26Z</time>
      </trkpt>
      <trkpt lat="46.72369" lon="-1.16495">
        <ele>99</ele>
        <time>2010-01-01T02:33:28Z</time>
      </trkpt>
      <trkpt lat="46.72357" lon="-1.1657">
        <ele>97</ele>
        <time>2010-01-01T02:33:49Z</time>
      </trkpt>
      <trkpt lat="46.72206" lon="-1.17083">
        <ele>89</ele>
        <time>2010-01-01T02:36:22Z</time>
      </trkpt>
      <trkpt lat="46.72193" lon="-1.17145">
        <ele>88</ele>
        <time>2010-01-01T02:36:40Z</time>
      </trkpt>
      <trkpt lat="46.7219" lon="-1.17189">
        <ele>89</ele>
        <time>2010-01-01T02:36:52Z</time>
      </trkpt>
      <trkpt lat="46.72194" lon="-1.17228">
        <ele>89</ele>
        <time>2010-01-01T02:37:03Z</time>
      </trkpt>
      <trkpt lat="46.72252" lon="-1.17536">
        <ele>88</ele>
        <time>2010-01-01T02:38:30Z</time>
      </trkpt>
      <trkpt lat="46.72266" lon="-1.17617">
        <ele>87</ele>
        <time>2010-01-01T02:38:53Z</time>
      </trkpt>
      <trkpt lat="46.72261" lon="-1.17658">
        <ele>86</ele>
        <time>2010-01-01T02:39:05Z</time>
      </trkpt>
      <trkpt lat="46.7224" lon="-1.17704">
        <ele>85</ele>
        <time>2010-01-01T02:39:20Z</time>
      </trkpt>
      <trkpt lat="46.72244" lon="-1.17714">
        <ele>85</ele>
        <time>2010-01-01T02:39:23Z</time>
      </trkpt>
      <trkpt lat="46.7226" lon="-1.17904">
        <ele>89</ele>
        <time>2010-01-01T02:40:16Z</time>
      </trkpt>
      <trkpt lat="46.7226" lon="-1.17953">
        <ele>89</ele>
        <time>2010-01-01T02:40:29Z</time>
      </trkpt>
      <trkpt lat="46.72313" lon="-1.1798">
        <ele>91</ele>
        <time>2010-01-01T02:40:52Z</time>
      </trkpt>
      <trkpt lat="46.72468" lon="-1.183">
        <ele>93</ele>
        <time>2010-01-01T02:42:39Z</time>
      </trkpt>
      <trkpt lat="46.7252" lon="-1.18496">
        <ele>95</ele>
        <time>2010-01-01T02:43:37Z</time>
      </trkpt>
      <trkpt lat="46.72536" lon="-1.18544">
        <ele>95</ele>
        <time>2010-01-01T02:43:51Z</time>
      </trkpt>
      <trkpt lat="46.72584" lon="-1.18627">
        <ele>95</ele>
        <time>2010-01-01T02:44:21Z</time>
      </trkpt>
      <trkpt lat="46.72804" lon="-1.18951">
        <ele>96</ele>
        <time>2010-01-01T02:46:26Z</time>
      </trkpt>
      <trkpt lat="46.72824" lon="-1.18986">
        <ele>95</ele>
        <time>2010-01-01T02:46:39Z</time>
      </trkpt>
      <trkpt lat="46.72834" lon="-1.19027">
        <ele>96</ele>
        <time>2010-01-01T02:46:51Z</time>
      </trkpt>
      <trkpt lat="46.72846" lon="-1.19191">
        <ele>99</ele>
        <time>2010-01-01T02:47:36Z</time>
      </trkpt>
      <trkpt lat="46.72861" lon="-1.19242">
        <ele>99</ele>
        <time>2010-01-01T02:47:51Z</time>
      </trkpt>
      <trkpt lat="46.72908" lon="-1.19365">
        <ele>100</ele>
        <time>2010-01-01T02:48:30Z</time>
      </trkpt>
      <trkpt lat="46.72921" lon="-1.19403">
        <ele>101</ele>
        <time>2010-01-01T02:48:42Z</time>
      </trkpt>
      <trkpt lat="46.7293" lon="-1.1945">
        <ele>101</ele>
        <time>2010-01-01T02:48:55Z</time>
      </trkpt>
      <trkpt lat="46.72933" lon="-1.19494">
        <ele>102</ele>
        <time>2010-01-01T02:49:07Z</time>
      </trkpt>
      <trkpt lat="46.7293" lon="-1.19685">
        <ele>105</ele>
        <time>2010-01-01T02:50:00Z</time>
      </trkpt>
      <trkpt lat="46.7294" lon="-1.19764">
        <ele>106</ele>
        <time>2010-01-01T02:50:22Z</time>
      </trkpt>
      <trkpt lat="46.72957" lon="-1.19836">
        <ele>105</ele>
        <time>2010-01-01T02:50:42Z</time>
      </trkpt>
      <trkpt lat="46.73251" lon="-1.20742">
        <ele>102</ele>
        <time>2010-01-01T02:55:18Z</time>
      </trkpt>
      <trkpt lat="46.73294" lon="-1.20829">
        <ele>103</ele>
        <time>2010-01-01T02:55:47Z</time>
      </trkpt>
      <trkpt lat="46.73383" lon="-1.20984">
        <ele>103</ele>
        <time>2010-01-01T02:56:42Z</time>
      </trkpt>
      <trkpt lat="46.73399" lon="-1.2102">
        <ele>103</ele>
        <time>2010-01-01T02:56:54Z</time>
      </trkpt>
      <trkpt lat="46.73408" lon="-1.21054">
        <ele>103</ele>
        <time>2010-01-01T02:57:04Z</time>
      </trkpt>
      <trkpt lat="46.7342" lon="-1.2118">
        <ele>102</ele>
        <time>2010-01-01T02:57:39Z</time>
      </trkpt>
      <trkpt lat="46.73419" lon="-1.21233">
        <ele>102</ele>
        <time>2010-01-01T02:57:54Z</time>
      </trkpt>
      <trkpt lat="46.73412" lon="-1.21272">
        <ele>101</ele>
        <time>2010-01-01T02:58:05Z</time>
      </trkpt>
      <trkpt lat="46.73392" lon="-1.21338">
        <ele>102</ele>
        <time>2010-01-01T02:58:24Z</time>
      </trkpt>
      <trkpt lat="46.73385" lon="-1.21386">
        <ele>102</ele>
        <time>2010-01-01T02:58:38Z</time>
      </trkpt>
      <trkpt lat="46.73386" lon="-1.21448">
        <ele>102</ele>
        <time>2010-01-01T02:58:55Z</time>
      </trkpt>
      <trkpt lat="46.734" lon="-1.21669">
        <ele>102</ele>
        <time>2010-01-01T02:59:56Z</time>
      </trkpt>
      <trkpt lat="46.73412" lon="-1.21732">
        <ele>100</ele>
        <time>2010-01-01T03:00:14Z</time>
      </trkpt>
      <trkpt lat="46.73452" lon="-1.21837">
        <ele>99</ele>
        <time>2010-01-01T03:00:47Z</time>
      </trkpt>
      <trkpt lat="46.7346" lon="-1.21886">
        <ele>99</ele>
        <time>2010-01-01T03:01:01Z</time>
      </trkpt>
      <trkpt lat="46.73461" lon="-1.22013">
        <ele>100</ele>
        <time>2010-01-01T03:01:35Z</time>
      </trkpt>
      <trkpt lat="46.73468" lon="-1.22073">
        <ele>99</ele>
        <time>2010-01-01T03:01:52Z</time>
      </trkpt>
      <trkpt lat="46.7348" lon="-1.22119">
        <ele>100</ele>
        <time>2010-01-01T03:02:06Z</time>
      </trkpt>
      <trkpt lat="46.73547" lon="-1.22318">
        <ele>99</ele>
        <time>2010-01-01T03:03:06Z</time>
      </trkpt>
      <trkpt lat="46.73563" lon="-1.22381">
        <ele>99</ele>
        <time>2010-01-01T03:03:25Z</time>
      </trkpt>
      <trkpt lat="46.73692" lon="-1.23085">
        <ele>101</ele>
        <time>2010-01-01T03:06:45Z</time>
      </trkpt>
      <trkpt lat="46.73692" lon="-1.23144">
        <ele>100</ele>
        <time>2010-01-01T03:07:01Z</time>
      </trkpt>
      <trkpt lat="46.73662" lon="-1.23311">
        <ele>98</ele>
        <time>2010-01-01T03:07:48Z</time>
      </trkpt>
      <trkpt lat="46.73662" lon="-1.23351">
        <ele>96</ele>
        <time>2010-01-01T03:07:59Z</time>
      </trkpt>
      <trkpt lat="46.73666" lon="-1.23381">
        <ele>96</ele>
        <time>2010-01-01T03:08:08Z</time>
      </trkpt>
      <trkpt lat="46.73691" lon="-1.23471">
        <ele>99</ele>
        <time>2010-01-01T03:08:34Z</time>
      </trkpt>
      <trkpt lat="46.73712" lon="-1.23532">
        <ele>97</ele>
        <time>2010-01-01T03:08:53Z</time>
      </trkpt>
      <trkpt lat="46.73811" lon="-1.23688">
        <ele>98</ele>
        <time>2010-01-01T03:09:51Z</time>
      </trkpt>
      <trkpt lat="46.73833" lon="-1.23729">
        <ele>99</ele>
        <time>2010-01-01T03:10:06Z</time>
      </trkpt>
      <trkpt lat="46.73851" lon="-1.23775">
        <ele>98</ele>
        <time>2010-01-01T03:10:20Z</time>
      </trkpt>
      <trkpt lat="46.73958" lon="-1.24344">
        <ele>93</ele>
        <time>2010-01-01T03:13:02Z</time>
      </trkpt>
      <trkpt lat="46.73986" lon="-1.24439">
        <ele>92</ele>
        <time>2010-01-01T03:13:30Z</time>
      </trkpt>
      <trkpt lat="46.74012" lon="-1.24497">
        <ele>92</ele>
        <time>2010-01-01T03:13:49Z</time>
      </trkpt>
      <trkpt lat="46.74083" lon="-1.24612">
        <ele>92</ele>
        <time>2010-01-01T03:14:32Z</time>
      </trkpt>
      <trkpt lat="46.74122" lon="-1.24688">
        <ele>91</ele>
        <time>2010-01-01T03:14:58Z</time>
      </trkpt>
      <trkpt lat="46.74173" lon="-1.24811">
        <ele>87</ele>
        <time>2010-01-01T03:15:37Z</time>
      </trkpt>
      <trkpt lat="46.74239" lon="-1.24994">
        <ele>87</ele>
        <time>2010-01-01T03:16:34Z</time>
      </trkpt>
      <trkpt lat="46.74245" lon="-1.25024">
        <ele>88</ele>
        <time>2010-01-01T03:16:43Z</time>
      </trkpt>
      <trkpt lat="46.74246" lon="-1.25049">
        <ele>89</ele>
        <time>2010-01-01T03:16:50Z</time>
      </trkpt>
      <trkpt lat="46.74242" lon="-1.25074">
        <ele>90</ele>
        <time>2010-01-01T03:16:57Z</time>
      </trkpt>
      <trkpt lat="46.74154" lon="-1.25254">
        <ele>91</ele>
        <time>2010-01-01T03:17:57Z</time>
      </trkpt>
      <trkpt lat="46.74138" lon="-1.253">
        <ele>91</ele>
        <time>2010-01-01T03:18:11Z</time>
      </trkpt>
      <trkpt lat="46.74134" lon="-1.25333">
        <ele>91</ele>
        <time>2010-01-01T03:18:21Z</time>
      </trkpt>
      <trkpt lat="46.74138" lon="-1.25376">
        <ele>92</ele>
        <time>2010-01-01T03:18:33Z</time>
      </trkpt>
      <trkpt lat="46.74184" lon="-1.2566">
        <ele>89</ele>
        <time>2010-01-01T03:19:53Z</time>
      </trkpt>
      <trkpt lat="46.74187" lon="-1.25715">
        <ele>87</ele>
        <time>2010-01-01T03:20:08Z</time>
      </trkpt>
      <trkpt lat="46.74176" lon="-1.25853">
        <ele>84</ele>
        <time>2010-01-01T03:20:46Z</time>
      </trkpt>
      <trkpt lat="46.74175" lon="-1.2593">
        <ele>84</ele>
        <time>2010-01-01T03:21:07Z</time>
      </trkpt>
      <trkpt lat="46.74235" lon="-1.26443">
        <ele>92</ele>
        <time>2010-01-01T03:23:30Z</time>
      </trkpt>
      <trkpt lat="46.74235" lon="-1.26596">
        <ele>91</ele>
        <time>2010-01-01T03:24:12Z</time>
      </trkpt>
      <trkpt lat="46.74242" lon="-1.26696">
        <ele>91</ele>
        <time>2010-01-01T03:24:39Z</time>
      </trkpt>
      <trkpt lat="46.74265" lon="-1.26863">
        <ele>93</ele>
        <time>2010-01-01T03:25:26Z</time>
      </trkpt>
      <trkpt lat="46.74292" lon="-1.26965">
        <ele>94</ele>
        <time>2010-01-01T03:25:56Z</time>
      </trkpt>
      <trkpt lat="46.74318" lon="-1.27011">
        <ele>93</ele>
        <time>2010-01-01T03:26:12Z</time>
      </trkpt>
      <trkpt lat="46.74365" lon="-1.27139">
        <ele>93</ele>
        <time>2010-01-01T03:26:52Z</time>
      </trkpt>
      <trkpt lat="46.74592" lon="-1.27577">
        <ele>92</ele>
        <time>2010-01-01T03:29:23Z</time>
      </trkpt>
      <trkpt lat="46.74662" lon="-1.27658">
        <ele>90</ele>
        <time>2010-01-01T03:29:59Z</time>
      </trkpt>
      <trkpt lat="46.74738" lon="-1.27736">
        <ele>92</ele>
        <time>2010-01-01T03:30:36Z</time>
      </trkpt>
      <trkpt lat="46.74763" lon="-1.27757">
        <ele>92</ele>
        <time>2010-01-01T03:30:47Z</time>
      </trkpt>
      <trkpt lat="46.74863" lon="-1.27811">
        <ele>89</ele>
        <time>2010-01-01T03:31:30Z</time>
      </trkpt>
      <trkpt lat="46.7488" lon="-1.27824">
        <ele>88</ele>
        <time>2010-01-01T03:31:38Z</time>
      </trkpt>
      <trkpt lat="46.74896" lon="-1.27844">
        <ele>87</ele>
        <time>2010-01-01T03:31:46Z</time>
      </trkpt>
      <trkpt lat="46.74913" lon="-1.27895">
        <ele>87</ele>
        <time>2010-01-01T03:32:02Z</time>
      </trkpt>
      <trkpt lat="46.74942" lon="-1.28043">
        <ele>85</ele>
        <time>2010-01-01T03:32:44Z</time>
      </trkpt>
      <trkpt lat="46.7496" lon="-1.28105">
        <ele>86</ele>
        <time>2010-01-01T03:33:02Z</time>
      </trkpt>
      <trkpt lat="46.74968" lon="-1.28123">
        <ele>86</ele>
        <time>2010-01-01T03:33:08Z</time>
      </trkpt>
      <trkpt lat="46.75019" lon="-1.28187">
        <ele>86</ele>
        <time>2010-01-01T03:33:35Z</time>
      </trkpt>
      <trkpt lat="46.75049" lon="-1.2824">
        <ele>85</ele>
        <time>2010-01-01T03:33:54Z</time>
      </trkpt>
      <trkpt lat="46.75205" lon="-1.2859">
        <ele>89</ele>
        <time>2010-01-01T03:35:49Z</time>
      </trkpt>
      <trkpt lat="46.75302" lon="-1.28848">
        <ele>91</ele>
        <time>2010-01-01T03:37:09Z</time>
      </trkpt>
      <trkpt lat="46.75458" lon="-1.2911">
        <ele>93</ele>
        <time>2010-01-01T03:38:44Z</time>
      </trkpt>
      <trkpt lat="46.7548" lon="-1.29212">
        <ele>90</ele>
        <time>2010-01-01T03:39:14Z</time>
      </trkpt>
      <trkpt lat="46.75508" lon="-1.29267">
        <ele>89</ele>
        <time>2010-01-01T03:39:33Z</time>
      </trkpt>
      <trkpt lat="46.7554" lon="-1.29308">
        <ele>91</ele>
        <time>2010-01-01T03:39:50Z</time>
      </trkpt>
      <trkpt lat="46.75571" lon="-1.29338">
        <ele>92</ele>
        <time>2010-01-01T03:40:05Z</time>
      </trkpt>
      <trkpt lat="46.75735" lon="-1.29435">
        <ele>90</ele>
        <time>2010-01-01T03:41:15Z</time>
      </trkpt>
      <trkpt lat="46.75876" lon="-1.29566">
        <ele>89</ele>
        <time>2010-01-01T03:42:22Z</time>
      </trkpt>
      <trkpt lat="46.76109" lon="-1.29747">
        <ele>86</ele>
        <time>2010-01-01T03:44:08Z</time>
      </trkpt>
      <trkpt lat="46.76151" lon="-1.2977">
        <ele>86</ele>
        <time>2010-01-01T03:44:26Z</time>
      </trkpt>
      <trkpt lat="46.76298" lon="-1.29826">
        <ele>83</ele>
        <time>2010-01-01T03:45:27Z</time>
      </trkpt>
      <trkpt lat="46.76377" lon="-1.29877">
        <ele>82</ele>
        <time>2010-01-01T03:46:01Z</time>
      </trkpt>
      <trkpt lat="46.7646" lon="-1.29947">
        <ele>80</ele>
        <time>2010-01-01T03:46:40Z</time>
      </trkpt>
      <trkpt lat="46.76501" lon="-1.29973">
        <ele>78</ele>
        <time>2010-01-01T03:46:58Z</time>
      </trkpt>
      <trkpt lat="46.76539" lon="-1.29984">
        <ele>77</ele>
        <time>2010-01-01T03:47:13Z</time>
      </trkpt>
      <trkpt lat="46.766" lon="-1.29971">
        <ele>77</ele>
        <time>2010-01-01T03:47:38Z</time>
      </trkpt>
      <trkpt lat="46.76608" lon="-1.29973">
        <ele>77</ele>
        <time>2010-01-01T03:47:41Z</time>
      </trkpt>
      <trkpt lat="46.76616" lon="-1.29992">
        <ele>76</ele>
        <time>2010-01-01T03:47:47Z</time>
      </trkpt>
      <trkpt lat="46.76638" lon="-1.30166">
        <ele>79</ele>
        <time>2010-01-01T03:48:36Z</time>
      </trkpt>
      <trkpt lat="46.7665" lon="-1.30235">
        <ele>79</ele>
        <time>2010-01-01T03:48:55Z</time>
      </trkpt>
      <trkpt lat="46.76701" lon="-1.30203">
        <ele>79</ele>
        <time>2010-01-01T03:49:17Z</time>
      </trkpt>
      <trkpt lat="46.76802" lon="-1.30169">
        <ele>79</ele>
        <time>2010-01-01T03:49:59Z</time>
      </trkpt>
      <trkpt lat="46.76857" lon="-1.30127">
        <ele>80</ele>
        <time>2010-01-01T03:50:24Z</time>
      </trkpt>
      <trkpt lat="46.7688" lon="-1.30116">
        <ele>80</ele>
        <time>2010-01-01T03:50:33Z</time>
      </trkpt>
      <trkpt lat="46.76976" lon="-1.3011">
        <ele>78</ele>
        <time>2010-01-01T03:51:12Z</time>
      </trkpt>
      <trkpt lat="46.7701" lon="-1.30139">
        <ele>78</ele>
        <time>2010-01-01T03:51:28Z</time>
      </trkpt>
      <trkpt lat="46.7706" lon="-1.30169">
        <ele>76</ele>
        <time>2010-01-01T03:51:49Z</time>
      </trkpt>
      <trkpt lat="46.77181" lon="-1.30203">
        <ele>73</ele>
        <time>2010-01-01T03:52:39Z</time>
      </trkpt>
      <trkpt lat="46.77243" lon="-1.30227">
        <ele>72</ele>
        <time>2010-01-01T03:53:04Z</time>
      </trkpt>
      <trkpt lat="46.77468" lon="-1.30355">
        <ele>79</ele>
        <time>2010-01-01T03:54:41Z</time>
      </trkpt>
      <trkpt lat="46.77513" lon="-1.3037">
        <ele>79</ele>
        <time>2010-01-01T03:54:59Z</time>
      </trkpt>
      <trkpt lat="46.77903" lon="-1.30388">
        <ele>84</ele>
        <time>2010-01-01T03:57:36Z</time>
      </trkpt>
      <trkpt lat="46.78347" lon="-1.3035">
        <ele>80</ele>
        <time>2010-01-01T04:00:34Z</time>
      </trkpt>
      <trkpt lat="46.78396" lon="-1.30332">
        <ele>81</ele>
        <time>2010-01-01T04:00:54Z</time>
      </trkpt>
      <trkpt lat="46.78557" lon="-1.30223">
        <ele>81</ele>
        <time>2010-01-01T04:02:05Z</time>
      </trkpt>
      <trkpt lat="46.7863" lon="-1.30171">
        <ele>81</ele>
        <time>2010-01-01T04:02:37Z</time>
      </trkpt>
      <trkpt lat="46.7865" lon="-1.30148">
        <ele>80</ele>
        <time>2010-01-01T04:02:48Z</time>
      </trkpt>
      <trkpt lat="46.78787" lon="-1.30047">
        <ele>79</ele>
        <time>2010-01-01T04:03:49Z</time>
      </trkpt>
      <trkpt lat="46.79153" lon="-1.29851">
        <ele>74</ele>
        <time>2010-01-01T04:06:25Z</time>
      </trkpt>
      <trkpt lat="46.79178" lon="-1.29828">
        <ele>75</ele>
        <time>2010-01-01T04:06:37Z</time>
      </trkpt>
      <trkpt lat="46.79251" lon="-1.29711">
        <ele>75</ele>
        <time>2010-01-01T04:07:20Z</time>
      </trkpt>
      <trkpt lat="46.79278" lon="-1.29686">
        <ele>76</ele>
        <time>2010-01-01T04:07:33Z</time>
      </trkpt>
      <trkpt lat="46.79304" lon="-1.29675">
        <ele>77</ele>
        <time>2010-01-01T04:07:44Z</time>
      </trkpt>
      <trkpt lat="46.79396" lon="-1.29661">
        <ele>81</ele>
        <time>2010-01-01T04:08:21Z</time>
      </trkpt>
      <trkpt lat="46.79401" lon="-1.2966">
        <ele>81</ele>
        <time>2010-01-01T04:08:23Z</time>
      </trkpt>
      <trkpt lat="46.79446" lon="-1.29651">
        <ele>83</ele>
        <time>2010-01-01T04:08:41Z</time>
      </trkpt>
      <trkpt lat="46.79488" lon="-1.2963">
        <ele>84</ele>
        <time>2010-01-01T04:08:59Z</time>
      </trkpt>
      <trkpt lat="46.7951" lon="-1.29626">
        <ele>85</ele>
        <time>2010-01-01T04:09:08Z</time>
      </trkpt>
      <trkpt lat="46.79521" lon="-1.2963">
        <ele>85</ele>
        <time>2010-01-01T04:09:12Z</time>
      </trkpt>
      <trkpt lat="46.79556" lon="-1.29665">
        <ele>85</ele>
        <time>2010-01-01T04:09:29Z</time>
      </trkpt>
      <trkpt lat="46.79575" lon="-1.29668">
        <ele>85</ele>
        <time>2010-01-01T04:09:37Z</time>
      </trkpt>
      <trkpt lat="46.79668" lon="-1.29602">
        <ele>88</ele>
        <time>2010-01-01T04:10:18Z</time>
      </trkpt>
      <trkpt lat="46.79884" lon="-1.29492">
        <ele>88</ele>
        <time>2010-01-01T04:11:50Z</time>
      </trkpt>
      <trkpt lat="46.79917" lon="-1.29457">
        <ele>87</ele>
        <time>2010-01-01T04:12:06Z</time>
      </trkpt>
      <trkpt lat="46.79939" lon="-1.29404">
        <ele>87</ele>
        <time>2010-01-01T04:12:23Z</time>
      </trkpt>
      <trkpt lat="46.79954" lon="-1.29356">
        <ele>86</ele>
        <time>2010-01-01T04:12:38Z</time>
      </trkpt>
      <trkpt lat="46.80044" lon="-1.29041">
        <ele>85</ele>
        <time>2010-01-01T04:14:11Z</time>
      </trkpt>
      <trkpt lat="46.80049" lon="-1.29007">
        <ele>86</ele>
        <time>2010-01-01T04:14:21Z</time>
      </trkpt>
      <trkpt lat="46.80049" lon="-1.28974">
        <ele>86</ele>
        <time>2010-01-01T04:14:30Z</time>
      </trkpt>
      <trkpt lat="46.80027" lon="-1.28773">
        <ele>88</ele>
        <time>2010-01-01T04:15:26Z</time>
      </trkpt>
      <trkpt lat="46.80027" lon="-1.28674">
        <ele>86</ele>
        <time>2010-01-01T04:15:53Z</time>
      </trkpt>
      <trkpt lat="46.80026" lon="-1.28617">
        <ele>85</ele>
        <time>2010-01-01T04:16:08Z</time>
      </trkpt>
      <trkpt lat="46.8003" lon="-1.28567">
        <ele>86</ele>
        <time>2010-01-01T04:16:22Z</time>
      </trkpt>
      <trkpt lat="46.80106" lon="-1.28331">
        <ele>83</ele>
        <time>2010-01-01T04:17:34Z</time>
      </trkpt>
      <trkpt lat="46.80123" lon="-1.28279">
        <ele>83</ele>
        <time>2010-01-01T04:17:49Z</time>
      </trkpt>
      <trkpt lat="46.8014" lon="-1.28236">
        <ele>82</ele>
        <time>2010-01-01T04:18:03Z</time>
      </trkpt>
      <trkpt lat="46.80145" lon="-1.28231">
        <ele>82</ele>
        <time>2010-01-01T04:18:05Z</time>
      </trkpt>
      <trkpt lat="46.80366" lon="-1.28145">
        <ele>81</ele>
        <time>2010-01-01T04:19:37Z</time>
      </trkpt>
      <trkpt lat="46.80397" lon="-1.28137">
        <ele>82</ele>
        <time>2010-01-01T04:19:50Z</time>
      </trkpt>
      <trkpt lat="46.80522" lon="-1.28123">
        <ele>80</ele>
        <time>2010-01-01T04:20:40Z</time>
      </trkpt>
      <trkpt lat="46.80639" lon="-1.28095">
        <ele>77</ele>
        <time>2010-01-01T04:21:27Z</time>
      </trkpt>
      <trkpt lat="46.80668" lon="-1.28096">
        <ele>78</ele>
        <time>2010-01-01T04:21:39Z</time>
      </trkpt>
      <trkpt lat="46.808" lon="-1.28119">
        <ele>75</ele>
        <time>2010-01-01T04:22:32Z</time>
      </trkpt>
      <trkpt lat="46.80826" lon="-1.28115">
        <ele>75</ele>
        <time>2010-01-01T04:22:42Z</time>
      </trkpt>
      <trkpt lat="46.80864" lon="-1.28092">
        <ele>76</ele>
        <time>2010-01-01T04:22:59Z</time>
      </trkpt>
      <trkpt lat="46.80932" lon="-1.28047">
        <ele>74</ele>
        <time>2010-01-01T04:23:29Z</time>
      </trkpt>
      <trkpt lat="46.80961" lon="-1.28033">
        <ele>74</ele>
        <time>2010-01-01T04:23:41Z</time>
      </trkpt>
      <trkpt lat="46.81121" lon="-1.28009">
        <ele>79</ele>
        <time>2010-01-01T04:24:45Z</time>
      </trkpt>
      <trkpt lat="46.81198" lon="-1.27976">
        <ele>80</ele>
        <time>2010-01-01T04:25:18Z</time>
      </trkpt>
      <trkpt lat="46.81267" lon="-1.27951">
        <ele>81</ele>
        <time>2010-01-01T04:25:46Z</time>
      </trkpt>
      <trkpt lat="46.81424" lon="-1.27932">
        <ele>81</ele>
        <time>2010-01-01T04:26:49Z</time>
      </trkpt>
      <trkpt lat="46.81443" lon="-1.27927">
        <ele>80</ele>
        <time>2010-01-01T04:26:57Z</time>
      </trkpt>
      <trkpt lat="46.81483" lon="-1.27906">
        <ele>81</ele>
        <time>2010-01-01T04:27:14Z</time>
      </trkpt>
      <trkpt lat="46.81543" lon="-1.27864">
        <ele>83</ele>
        <time>2010-01-01T04:27:40Z</time>
      </trkpt>
      <trkpt lat="46.81603" lon="-1.2779">
        <ele>79</ele>
        <time>2010-01-01T04:28:12Z</time>
      </trkpt>
      <trkpt lat="46.81721" lon="-1.27681">
        <ele>77</ele>
        <time>2010-01-01T04:29:08Z</time>
      </trkpt>
      <trkpt lat="46.81806" lon="-1.27617">
        <ele>76</ele>
        <time>2010-01-01T04:29:46Z</time>
      </trkpt>
      <trkpt lat="46.81959" lon="-1.27519">
        <ele>74</ele>
        <time>2010-01-01T04:30:53Z</time>
      </trkpt>
      <trkpt lat="46.82118" lon="-1.27439">
        <ele>72</ele>
        <time>2010-01-01T04:32:00Z</time>
      </trkpt>
      <trkpt lat="46.8219" lon="-1.27401">
        <ele>75</ele>
        <time>2010-01-01T04:32:31Z</time>
      </trkpt>
      <trkpt lat="46.82425" lon="-1.27211">
        <ele>72</ele>
        <time>2010-01-01T04:34:18Z</time>
      </trkpt>
      <trkpt lat="46.82611" lon="-1.27071">
        <ele>69</ele>
        <time>2010-01-01T04:35:42Z</time>
      </trkpt>
      <trkpt lat="46.82655" lon="-1.2702">
        <ele>67</ele>
        <time>2010-01-01T04:36:05Z</time>
      </trkpt>
      <trkpt lat="46.82676" lon="-1.26972">
        <ele>64</ele>
        <time>2010-01-01T04:36:20Z</time>
      </trkpt>
      <trkpt lat="46.82688" lon="-1.26918">
        <ele>60</ele>
        <time>2010-01-01T04:36:36Z</time>
      </trkpt>
      <trkpt lat="46.82733" lon="-1.26954">
        <ele>59</ele>
        <time>2010-01-01T04:36:56Z</time>
      </trkpt>
      <trkpt lat="46.82786" lon="-1.26967">
        <ele>65</ele>
        <time>2010-01-01T04:37:18Z</time>
      </trkpt>
      <trkpt lat="46.82804" lon="-1.26978">
        <ele>67</ele>
        <time>2010-01-01T04:37:26Z</time>
      </trkpt>
      <trkpt lat="46.82821" lon="-1.26991">
        <ele>68</ele>
        <time>2010-01-01T04:37:33Z</time>
      </trkpt>
      <trkpt lat="46.8287" lon="-1.27053">
        <ele>72</ele>
        <time>2010-01-01T04:37:59Z</time>
      </trkpt>
      <trkpt lat="46.82881" lon="-1.27057">
        <ele>71</ele>
        <time>2010-01-01T04:38:04Z</time>
      </trkpt>
      <trkpt lat="46.82958" lon="-1.27024">
        <ele>68</ele>
        <time>2010-01-01T04:38:36Z</time>
      </trkpt>
      <trkpt lat="46.82993" lon="-1.27004">
        <ele>65</ele>
        <time>2010-01-01T04:38:51Z</time>
      </trkpt>
      <trkpt lat="46.82993" lon="-1.26999">
        <ele>65</ele>
        <time>2010-01-01T04:38:52Z</time>
      </trkpt>
      <trkpt lat="46.83" lon="-1.26995">
        <ele>64</ele>
        <time>2010-01-01T04:38:55Z</time>
      </trkpt>
      <trkpt lat="46.83002" lon="-1.27008">
        <ele>65</ele>
        <time>2010-01-01T04:38:59Z</time>
      </trkpt>
      <trkpt lat="46.83085" lon="-1.27007">
        <ele>66</ele>
        <time>2010-01-01T04:39:32Z</time>
      </trkpt>
      <trkpt lat="46.83106" lon="-1.27013">
        <ele>68</ele>
        <time>2010-01-01T04:39:41Z</time>
      </trkpt>
      <trkpt lat="46.83155" lon="-1.27044">
        <ele>69</ele>
        <time>2010-01-01T04:40:02Z</time>
      </trkpt>
      <trkpt lat="46.83228" lon="-1.27065">
        <ele>67</ele>
        <time>2010-01-01T04:40:32Z</time>
      </trkpt>
      <trkpt lat="46.83262" lon="-1.27057">
        <ele>66</ele>
        <time>2010-01-01T04:40:46Z</time>
      </trkpt>
      <trkpt lat="46.83317" lon="-1.27017">
        <ele>67</ele>
        <time>2010-01-01T04:41:10Z</time>
      </trkpt>
      <trkpt lat="46.83371" lon="-1.26996">
        <ele>69</ele>
        <time>2010-01-01T04:41:33Z</time>
      </trkpt>
      <trkpt lat="46.83398" lon="-1.26998">
        <ele>68</ele>
        <time>2010-01-01T04:41:44Z</time>
      </trkpt>
      <trkpt lat="46.8353" lon="-1.27034">
        <ele>70</ele>
        <time>2010-01-01T04:42:37Z</time>
      </trkpt>
      <trkpt lat="46.83624" lon="-1.27036">
        <ele>64</ele>
        <time>2010-01-01T04:43:15Z</time>
      </trkpt>
      <trkpt lat="46.83685" lon="-1.2705">
        <ele>62</ele>
        <time>2010-01-01T04:43:40Z</time>
      </trkpt>
      <trkpt lat="46.83789" lon="-1.27044">
        <ele>67</ele>
        <time>2010-01-01T04:44:21Z</time>
      </trkpt>
      <trkpt lat="46.83834" lon="-1.27064">
        <ele>68</ele>
        <time>2010-01-01T04:44:40Z</time>
      </trkpt>
      <trkpt lat="46.83913" lon="-1.2712">
        <ele>69</ele>
        <time>2010-01-01T04:45:15Z</time>
      </trkpt>
      <trkpt lat="46.83943" lon="-1.27135">
        <ele>70</ele>
        <time>2010-01-01T04:45:28Z</time>
      </trkpt>
      <trkpt lat="46.83975" lon="-1.27139">
        <ele>70</ele>
        <time>2010-01-01T04:45:41Z</time>
      </trkpt>
      <trkpt lat="46.84053" lon="-1.27127">
        <ele>71</ele>
        <time>2010-01-01T04:46:12Z</time>
      </trkpt>
      <trkpt lat="46.84081" lon="-1.2713">
        <ele>70</ele>
        <time>2010-01-01T04:46:23Z</time>
      </trkpt>
      <trkpt lat="46.84187" lon="-1.27176">
        <ele>67</ele>
        <time>2010-01-01T04:47:08Z</time>
      </trkpt>
      <trkpt lat="46.84224" lon="-1.2718">
        <ele>66</ele>
        <time>2010-01-01T04:47:23Z</time>
      </trkpt>
      <trkpt lat="46.84256" lon="-1.27171">
        <ele>66</ele>
        <time>2010-01-01T04:47:36Z</time>
      </trkpt>
      <trkpt lat="46.85071" lon="-1.26837">
        <ele>73</ele>
        <time>2010-01-01T04:53:14Z</time>
      </trkpt>
      <trkpt lat="46.85116" lon="-1.26814">
        <ele>72</ele>
        <time>2010-01-01T04:53:33Z</time>
      </trkpt>
      <trkpt lat="46.85169" lon="-1.26763">
        <ele>70</ele>
        <time>2010-01-01T04:53:59Z</time>
      </trkpt>
      <trkpt lat="46.8553" lon="-1.26322">
        <ele>68</ele>
        <time>2010-01-01T04:57:07Z</time>
      </trkpt>
      <trkpt lat="46.85568" lon="-1.26292">
        <ele>67</ele>
        <time>2010-01-01T04:57:24Z</time>
      </trkpt>
      <trkpt lat="46.85608" lon="-1.26284">
        <ele>68</ele>
        <time>2010-01-01T04:57:41Z</time>
      </trkpt>
      <trkpt lat="46.8577" lon="-1.2627">
        <ele>71</ele>
        <time>2010-01-01T04:58:46Z</time>
      </trkpt>
      <trkpt lat="46.86058" lon="-1.26235">
        <ele>69</ele>
        <time>2010-01-01T05:00:41Z</time>
      </trkpt>
      <trkpt lat="46.86178" lon="-1.26234">
        <ele>63</ele>
        <time>2010-01-01T05:01:29Z</time>
      </trkpt>
      <trkpt lat="46.86207" lon="-1.26223">
        <ele>61</ele>
        <time>2010-01-01T05:01:41Z</time>
      </trkpt>
      <trkpt lat="46.86228" lon="-1.26208">
        <ele>60</ele>
        <time>2010-01-01T05:01:51Z</time>
      </trkpt>
      <trkpt lat="46.86239" lon="-1.26194">
        <ele>59</ele>
        <time>2010-01-01T05:01:56Z</time>
      </trkpt>
      <trkpt lat="46.86247" lon="-1.26174">
        <ele>59</ele>
        <time>2010-01-01T05:02:03Z</time>
      </trkpt>
      <trkpt lat="46.86248" lon="-1.26151">
        <ele>59</ele>
        <time>2010-01-01T05:02:09Z</time>
      </trkpt>
      <trkpt lat="46.86233" lon="-1.26039">
        <ele>62</ele>
        <time>2010-01-01T05:02:40Z</time>
      </trkpt>
      <trkpt lat="46.86199" lon="-1.25919">
        <ele>64</ele>
        <time>2010-01-01T05:03:16Z</time>
      </trkpt>
      <trkpt lat="46.86131" lon="-1.25703">
        <ele>67</ele>
        <time>2010-01-01T05:04:21Z</time>
      </trkpt>
      <trkpt lat="46.86125" lon="-1.25677">
        <ele>67</ele>
        <time>2010-01-01T05:04:29Z</time>
      </trkpt>
      <trkpt lat="46.86125" lon="-1.25657">
        <ele>67</ele>
        <time>2010-01-01T05:04:34Z</time>
      </trkpt>
      <trkpt lat="46.86133" lon="-1.25628">
        <ele>67</ele>
        <time>2010-01-01T05:04:43Z</time>
      </trkpt>
      <trkpt lat="46.86252" lon="-1.25333">
        <ele>61</ele>
        <time>2010-01-01T05:06:16Z</time>
      </trkpt>
      <trkpt lat="46.86304" lon="-1.25178">
        <ele>58</ele>
        <time>2010-01-01T05:07:04Z</time>
      </trkpt>
      <trkpt lat="46.86365" lon="-1.25069">
        <ele>58</ele>
        <time>2010-01-01T05:07:42Z</time>
      </trkpt>
      <trkpt lat="46.86373" lon="-1.25038">
        <ele>57</ele>
        <time>2010-01-01T05:07:51Z</time>
      </trkpt>
      <trkpt lat="46.86374" lon="-1.24988">
        <ele>55</ele>
        <time>2010-01-01T05:08:05Z</time>
      </trkpt>
      <trkpt lat="46.8638" lon="-1.24949">
        <ele>51</ele>
        <time>2010-01-01T05:08:16Z</time>
      </trkpt>
      <trkpt lat="46.86398" lon="-1.24896">
        <ele>50</ele>
        <time>2010-01-01T05:08:32Z</time>
      </trkpt>
      <trkpt lat="46.86443" lon="-1.24795">
        <ele>49</ele>
        <time>2010-01-01T05:09:05Z</time>
      </trkpt>
      <trkpt lat="46.86466" lon="-1.2477">
        <ele>48</ele>
        <time>2010-01-01T05:09:16Z</time>
      </trkpt>
      <trkpt lat="46.86572" lon="-1.24746">
        <ele>50</ele>
        <time>2010-01-01T05:09:59Z</time>
      </trkpt>
      <trkpt lat="46.86604" lon="-1.24723">
        <ele>51</ele>
        <time>2010-01-01T05:10:14Z</time>
      </trkpt>
      <trkpt lat="46.86706" lon="-1.24468">
        <ele>53</ele>
        <time>2010-01-01T05:11:35Z</time>
      </trkpt>
      <trkpt lat="46.86712" lon="-1.24279">
        <ele>58</ele>
        <time>2010-01-01T05:12:26Z</time>
      </trkpt>
      <trkpt lat="46.86675" lon="-1.24019">
        <ele>69</ele>
        <time>2010-01-01T05:13:39Z</time>
      </trkpt>
      <trkpt lat="46.8668" lon="-1.23865">
        <ele>69</ele>
        <time>2010-01-01T05:14:21Z</time>
      </trkpt>
      <trkpt lat="46.86675" lon="-1.23801">
        <ele>69</ele>
        <time>2010-01-01T05:14:39Z</time>
      </trkpt>
      <trkpt lat="46.86656" lon="-1.23692">
        <ele>69</ele>
        <time>2010-01-01T05:15:10Z</time>
      </trkpt>
      <trkpt lat="46.8664" lon="-1.23484">
        <ele>69</ele>
        <time>2010-01-01T05:16:07Z</time>
      </trkpt>
      <trkpt lat="46.86619" lon="-1.23244">
        <ele>72</ele>
        <time>2010-01-01T05:17:13Z</time>
      </trkpt>
      <trkpt lat="46.86561" lon="-1.22937">
        <ele>73</ele>
        <time>2010-01-01T05:18:40Z</time>
      </trkpt>
      <trkpt lat="46.86548" lon="-1.22888">
        <ele>72</ele>
        <time>2010-01-01T05:18:55Z</time>
      </trkpt>
      <trkpt lat="46.86525" lon="-1.22822">
        <ele>72</ele>
        <time>2010-01-01T05:19:15Z</time>
      </trkpt>
      <trkpt lat="46.865" lon="-1.22776">
        <ele>72</ele>
        <time>2010-01-01T05:19:31Z</time>
      </trkpt>
      <trkpt lat="46.86412" lon="-1.22663">
        <ele>73</ele>
        <time>2010-01-01T05:20:18Z</time>
      </trkpt>
      <trkpt lat="46.86362" lon="-1.22584">
        <ele>72</ele>
        <time>2010-01-01T05:20:47Z</time>
      </trkpt>
      <trkpt lat="46.86348" lon="-1.2255">
        <ele>72</ele>
        <time>2010-01-01T05:20:58Z</time>
      </trkpt>
      <trkpt lat="46.86233" lon="-1.22044">
        <ele>76</ele>
        <time>2010-01-01T05:23:24Z</time>
      </trkpt>
      <trkpt lat="46.8621" lon="-1.21958">
        <ele>76</ele>
        <time>2010-01-01T05:23:49Z</time>
      </trkpt>
      <trkpt lat="46.86085" lon="-1.21574">
        <ele>78</ele>
        <time>2010-01-01T05:25:46Z</time>
      </trkpt>
      <trkpt lat="46.85974" lon="-1.21174">
        <ele>77</ele>
        <time>2010-01-01T05:27:44Z</time>
      </trkpt>
      <trkpt lat="46.85897" lon="-1.20946">
        <ele>70</ele>
        <time>2010-01-01T05:28:54Z</time>
      </trkpt>
      <trkpt lat="46.85893" lon="-1.20923">
        <ele>70</ele>
        <time>2010-01-01T05:29:00Z</time>
      </trkpt>
      <trkpt lat="46.85893" lon="-1.20889">
        <ele>70</ele>
        <time>2010-01-01T05:29:09Z</time>
      </trkpt>
      <trkpt lat="46.85938" lon="-1.20579">
        <ele>62</ele>
        <time>2010-01-01T05:30:36Z</time>
      </trkpt>
      <trkpt lat="46.85947" lon="-1.20555">
        <ele>62</ele>
        <time>2010-01-01T05:30:44Z</time>
      </trkpt>
      <trkpt lat="46.85958" lon="-1.20541">
        <ele>62</ele>
        <time>2010-01-01T05:30:50Z</time>
      </trkpt>
      <trkpt lat="46.86044" lon="-1.20471">
        <ele>57</ele>
        <time>2010-01-01T05:31:29Z</time>
      </trkpt>
      <trkpt lat="46.86051" lon="-1.20462">
        <ele>56</ele>
        <time>2010-01-01T05:31:33Z</time>
      </trkpt>
      <trkpt lat="46.86059" lon="-1.20438">
        <ele>53</ele>
        <time>2010-01-01T05:31:40Z</time>
      </trkpt>
      <trkpt lat="46.86071" lon="-1.20352">
        <ele>56</ele>
        <time>2010-01-01T05:32:04Z</time>
      </trkpt>
      <trkpt lat="46.86075" lon="-1.20287">
        <ele>60</ele>
        <time>2010-01-01T05:32:22Z</time>
      </trkpt>
      <trkpt lat="46.86073" lon="-1.20245">
        <ele>62</ele>
        <time>2010-01-01T05:32:33Z</time>
      </trkpt>
      <trkpt lat="46.86066" lon="-1.20209">
        <ele>61</ele>
        <time>2010-01-01T05:32:44Z</time>
      </trkpt>
      <trkpt lat="46.86055" lon="-1.20177">
        <ele>61</ele>
        <time>2010-01-01T05:32:53Z</time>
      </trkpt>
      <trkpt lat="46.8602" lon="-1.20114">
        <ele>62</ele>
        <time>2010-01-01T05:33:16Z</time>
      </trkpt>
      <trkpt lat="46.85973" lon="-1.20053">
        <ele>63</ele>
        <time>2010-01-01T05:33:41Z</time>
      </trkpt>
      <trkpt lat="46.85934" lon="-1.20033">
        <ele>64</ele>
        <time>2010-01-01T05:33:57Z</time>
      </trkpt>
      <trkpt lat="46.85873" lon="-1.20023">
        <ele>69</ele>
        <time>2010-01-01T05:34:22Z</time>
      </trkpt>
      <trkpt lat="46.85857" lon="-1.20011">
        <ele>70</ele>
        <time>2010-01-01T05:34:29Z</time>
      </trkpt>
      <trkpt lat="46.85838" lon="-1.19979">
        <ele>71</ele>
        <time>2010-01-01T05:34:41Z</time>
      </trkpt>
      <trkpt lat="46.85746" lon="-1.19736">
        <ele>73</ele>
        <time>2010-01-01T05:35:57Z</time>
      </trkpt>
      <trkpt lat="46.85547" lon="-1.19259">
        <ele>77</ele>
        <time>2010-01-01T05:38:30Z</time>
      </trkpt>
      <trkpt lat="46.85536" lon="-1.19211">
        <ele>78</ele>
        <time>2010-01-01T05:38:44Z</time>
      </trkpt>
      <trkpt lat="46.85538" lon="-1.19052">
        <ele>80</ele>
        <time>2010-01-01T05:39:27Z</time>
      </trkpt>
      <trkpt lat="46.85534" lon="-1.18983">
        <ele>80</ele>
        <time>2010-01-01T05:39:46Z</time>
      </trkpt>
      <trkpt lat="46.85516" lon="-1.18889">
        <ele>82</ele>
        <time>2010-01-01T05:40:13Z</time>
      </trkpt>
      <trkpt lat="46.85432" lon="-1.18556">
        <ele>82</ele>
        <time>2010-01-01T05:41:50Z</time>
      </trkpt>
      <trkpt lat="46.8539" lon="-1.18356">
        <ele>85</ele>
        <time>2010-01-01T05:42:47Z</time>
      </trkpt>
      <trkpt lat="46.85387" lon="-1.18323">
        <ele>84</ele>
        <time>2010-01-01T05:42:56Z</time>
      </trkpt>
      <trkpt lat="46.85392" lon="-1.18244">
        <ele>83</ele>
        <time>2010-01-01T05:43:18Z</time>
      </trkpt>
      <trkpt lat="46.85414" lon="-1.18075">
        <ele>85</ele>
        <time>2010-01-01T05:44:05Z</time>
      </trkpt>
      <trkpt lat="46.85434" lon="-1.18017">
        <ele>86</ele>
        <time>2010-01-01T05:44:23Z</time>
      </trkpt>
      <trkpt lat="46.85473" lon="-1.17945">
        <ele>86</ele>
        <time>2010-01-01T05:44:48Z</time>
      </trkpt>
      <trkpt lat="46.85322" lon="-1.17775">
        <ele>83</ele>
        <time>2010-01-01T05:46:04Z</time>
      </trkpt>
      <trkpt lat="46.85235" lon="-1.17679">
        <ele>84</ele>
        <time>2010-01-01T05:46:48Z</time>
      </trkpt>
      <trkpt lat="46.85229" lon="-1.17679">
        <ele>84</ele>
        <time>2010-01-01T05:46:50Z</time>
      </trkpt>
      <trkpt lat="46.85227" lon="-1.17669">
        <ele>84</ele>
        <time>2010-01-01T05:46:53Z</time>
      </trkpt>
      <trkpt lat="46.85193" lon="-1.17641">
        <ele>82</ele>
        <time>2010-01-01T05:47:09Z</time>
      </trkpt>
      <trkpt lat="46.85129" lon="-1.17604">
        <ele>80</ele>
        <time>2010-01-01T05:47:36Z</time>
      </trkpt>
      <trkpt lat="46.85102" lon="-1.176">
        <ele>79</ele>
        <time>2010-01-01T05:47:47Z</time>
      </trkpt>
      <trkpt lat="46.85086" lon="-1.17604">
        <ele>79</ele>
        <time>2010-01-01T05:47:54Z</time>
      </trkpt>
      <trkpt lat="46.85087" lon="-1.17619">
        <ele>79</ele>
        <time>2010-01-01T05:47:58Z</time>
      </trkpt>
      <trkpt lat="46.85073" lon="-1.17627">
        <ele>78</ele>
        <time>2010-01-01T05:48:04Z</time>
      </trkpt>
      <trkpt lat="46.85059" lon="-1.1761">
        <ele>78</ele>
        <time>2010-01-01T05:48:11Z</time>
      </trkpt>
      <trkpt lat="46.85032" lon="-1.17506">
        <ele>76</ele>
        <time>2010-01-01T05:48:42Z</time>
      </trkpt>
      <trkpt lat="46.85032" lon="-1.17433">
        <ele>75</ele>
        <time>2010-01-01T05:49:02Z</time>
      </trkpt>
      <trkpt lat="46.85027" lon="-1.17382">
        <ele>75</ele>
        <time>2010-01-01T05:49:16Z</time>
      </trkpt>
      <trkpt lat="46.84999" lon="-1.173">
        <ele>80</ele>
        <time>2010-01-01T05:49:41Z</time>
      </trkpt>
      <trkpt lat="46.84994" lon="-1.17304">
        <ele>80</ele>
        <time>2010-01-01T05:49:43Z</time>
      </trkpt>
      <trkpt lat="46.84991" lon="-1.17296">
        <ele>80</ele>
        <time>2010-01-01T05:49:46Z</time>
      </trkpt>
      <trkpt lat="46.85" lon="-1.17287">
        <ele>80</ele>
        <time>2010-01-01T05:49:50Z</time>
      </trkpt>
      <trkpt lat="46.85007" lon="-1.17217">
        <ele>79</ele>
        <time>2010-01-01T05:50:09Z</time>
      </trkpt>
      <trkpt lat="46.85053" lon="-1.17038">
        <ele>80</ele>
        <time>2010-01-01T05:51:02Z</time>
      </trkpt>
      <trkpt lat="46.85077" lon="-1.16972">
        <ele>83</ele>
        <time>2010-01-01T05:51:22Z</time>
      </trkpt>
      <trkpt lat="46.85171" lon="-1.16746">
        <ele>88</ele>
        <time>2010-01-01T05:52:35Z</time>
      </trkpt>
      <trkpt lat="46.85172" lon="-1.16681">
        <ele>88</ele>
        <time>2010-01-01T05:52:52Z</time>
      </trkpt>
      <trkpt lat="46.85176" lon="-1.16672">
        <ele>88</ele>
        <time>2010-01-01T05:52:55Z</time>
      </trkpt>
      <trkpt lat="46.85182" lon="-1.16669">
        <ele>88</ele>
        <time>2010-01-01T05:52:58Z</time>
      </trkpt>
      <trkpt lat="46.85195" lon="-1.16628">
        <ele>89</ele>
        <time>2010-01-01T05:53:10Z</time>
      </trkpt>
      <trkpt lat="46.85226" lon="-1.165">
        <ele>92</ele>
        <time>2010-01-01T05:53:47Z</time>
      </trkpt>
      <trkpt lat="46.8554" lon="-1.15102">
        <ele>101</ele>
        <time>2010-01-01T06:00:30Z</time>
      </trkpt>
      <trkpt lat="46.85622" lon="-1.14722">
        <ele>97</ele>
        <time>2010-01-01T06:02:19Z</time>
      </trkpt>
      <trkpt lat="46.85684" lon="-1.14216">
        <ele>100</ele>
        <time>2010-01-01T06:04:40Z</time>
      </trkpt>
      <trkpt lat="46.85698" lon="-1.1416">
        <ele>101</ele>
        <time>2010-01-01T06:04:56Z</time>
      </trkpt>
      <trkpt lat="46.85718" lon="-1.14107">
        <ele>102</ele>
        <time>2010-01-01T06:05:13Z</time>
      </trkpt>
      <trkpt lat="46.85755" lon="-1.14049">
        <ele>103</ele>
        <time>2010-01-01T06:05:35Z</time>
      </trkpt>
      <trkpt lat="46.85788" lon="-1.14016">
        <ele>105</ele>
        <time>2010-01-01T06:05:51Z</time>
      </trkpt>
      <trkpt lat="46.85913" lon="-1.13932">
        <ele>104</ele>
        <time>2010-01-01T06:06:46Z</time>
      </trkpt>
      <trkpt lat="46.85952" lon="-1.13891">
        <ele>103</ele>
        <time>2010-01-01T06:07:05Z</time>
      </trkpt>
      <trkpt lat="46.85986" lon="-1.13841">
        <ele>104</ele>
        <time>2010-01-01T06:07:24Z</time>
      </trkpt>
      <trkpt lat="46.86016" lon="-1.13787">
        <ele>103</ele>
        <time>2010-01-01T06:07:43Z</time>
      </trkpt>
      <trkpt lat="46.8633" lon="-1.13154">
        <ele>102</ele>
        <time>2010-01-01T06:11:17Z</time>
      </trkpt>
      <trkpt lat="46.86353" lon="-1.13083">
        <ele>102</ele>
        <time>2010-01-01T06:11:39Z</time>
      </trkpt>
      <trkpt lat="46.86416" lon="-1.12851">
        <ele>100</ele>
        <time>2010-01-01T06:12:47Z</time>
      </trkpt>
      <trkpt lat="46.86492" lon="-1.12397">
        <ele>97</ele>
        <time>2010-01-01T06:14:55Z</time>
      </trkpt>
      <trkpt lat="46.86516" lon="-1.12274">
        <ele>94</ele>
        <time>2010-01-01T06:15:30Z</time>
      </trkpt>
      <trkpt lat="46.86627" lon="-1.11897">
        <ele>88</ele>
        <time>2010-01-01T06:17:22Z</time>
      </trkpt>
      <trkpt lat="46.8663" lon="-1.1186">
        <ele>86</ele>
        <time>2010-01-01T06:17:33Z</time>
      </trkpt>
      <trkpt lat="46.86626" lon="-1.11828">
        <ele>84</ele>
        <time>2010-01-01T06:17:41Z</time>
      </trkpt>
      <trkpt lat="46.86456" lon="-1.11219">
        <ele>96</ele>
        <time>2010-01-01T06:20:42Z</time>
      </trkpt>
      <trkpt lat="46.86404" lon="-1.10912">
        <ele>97</ele>
        <time>2010-01-01T06:22:08Z</time>
      </trkpt>
      <trkpt lat="46.8639" lon="-1.10856">
        <ele>96</ele>
        <time>2010-01-01T06:22:24Z</time>
      </trkpt>
      <trkpt lat="46.86383" lon="-1.10781">
        <ele>95</ele>
        <time>2010-01-01T06:22:45Z</time>
      </trkpt>
      <trkpt lat="46.86361" lon="-1.10666">
        <ele>94</ele>
        <time>2010-01-01T06:23:18Z</time>
      </trkpt>
      <trkpt lat="46.86338" lon="-1.10594">
        <ele>95</ele>
        <time>2010-01-01T06:23:40Z</time>
      </trkpt>
      <trkpt lat="46.86168" lon="-1.10132">
        <ele>89</ele>
        <time>2010-01-01T06:26:03Z</time>
      </trkpt>
      <trkpt lat="46.86158" lon="-1.10102">
        <ele>86</ele>
        <time>2010-01-01T06:26:12Z</time>
      </trkpt>
      <trkpt lat="46.86138" lon="-1.10061">
        <ele>86</ele>
        <time>2010-01-01T06:26:26Z</time>
      </trkpt>
      <trkpt lat="46.86077" lon="-1.09991">
        <ele>89</ele>
        <time>2010-01-01T06:26:57Z</time>
      </trkpt>
      <trkpt lat="46.86052" lon="-1.09937">
        <ele>90</ele>
        <time>2010-01-01T06:27:15Z</time>
      </trkpt>
      <trkpt lat="46.8601" lon="-1.09846">
        <ele>90</ele>
        <time>2010-01-01T06:27:45Z</time>
      </trkpt>
      <trkpt lat="46.85973" lon="-1.09848">
        <ele>90</ele>
        <time>2010-01-01T06:28:00Z</time>
      </trkpt>
      <trkpt lat="46.85968" lon="-1.09784">
        <ele>90</ele>
        <time>2010-01-01T06:28:17Z</time>
      </trkpt>
      <trkpt lat="46.85975" lon="-1.09758">
        <ele>89</ele>
        <time>2010-01-01T06:28:25Z</time>
      </trkpt>
      <trkpt lat="46.85945" lon="-1.0966">
        <ele>92</ele>
        <time>2010-01-01T06:28:55Z</time>
      </trkpt>
      <trkpt lat="46.85983" lon="-1.09608">
        <ele>90</ele>
        <time>2010-01-01T06:29:15Z</time>
      </trkpt>
      <trkpt lat="46.85985" lon="-1.09568">
        <ele>89</ele>
        <time>2010-01-01T06:29:26Z</time>
      </trkpt>
      <trkpt lat="46.85962" lon="-1.09442">
        <ele>89</ele>
        <time>2010-01-01T06:30:02Z</time>
      </trkpt>
      <trkpt lat="46.85945" lon="-1.09374">
        <ele>89</ele>
        <time>2010-01-01T06:30:22Z</time>
      </trkpt>
      <trkpt lat="46.8588" lon="-1.09225">
        <ele>83</ele>
        <time>2010-01-01T06:31:10Z</time>
      </trkpt>
      <trkpt lat="46.8587" lon="-1.0919">
        <ele>81</ele>
        <time>2010-01-01T06:31:21Z</time>
      </trkpt>
      <trkpt lat="46.85863" lon="-1.09135">
        <ele>80</ele>
        <time>2010-01-01T06:31:36Z</time>
      </trkpt>
      <trkpt lat="46.85862" lon="-1.09">
        <ele>80</ele>
        <time>2010-01-01T06:32:13Z</time>
      </trkpt>
      <trkpt lat="46.85858" lon="-1.08978">
        <ele>79</ele>
        <time>2010-01-01T06:32:19Z</time>
      </trkpt>
      <trkpt lat="46.8585" lon="-1.08952">
        <ele>80</ele>
        <time>2010-01-01T06:32:27Z</time>
      </trkpt>
      <trkpt lat="46.85819" lon="-1.08882">
        <ele>79</ele>
        <time>2010-01-01T06:32:50Z</time>
      </trkpt>
      <trkpt lat="46.85753" lon="-1.08791">
        <ele>83</ele>
        <time>2010-01-01T06:33:26Z</time>
      </trkpt>
      <trkpt lat="46.85745" lon="-1.08776">
        <ele>83</ele>
        <time>2010-01-01T06:33:31Z</time>
      </trkpt>
      <trkpt lat="46.85742" lon="-1.08758">
        <ele>83</ele>
        <time>2010-01-01T06:33:36Z</time>
      </trkpt>
      <trkpt lat="46.85744" lon="-1.0874">
        <ele>84</ele>
        <time>2010-01-01T06:33:41Z</time>
      </trkpt>
      <trkpt lat="46.85769" lon="-1.08699">
        <ele>85</ele>
        <time>2010-01-01T06:33:56Z</time>
      </trkpt>
      <trkpt lat="46.85821" lon="-1.08594">
        <ele>88</ele>
        <time>2010-01-01T06:34:32Z</time>
      </trkpt>
      <trkpt lat="46.8585" lon="-1.08533">
        <ele>90</ele>
        <time>2010-01-01T06:34:52Z</time>
      </trkpt>
      <trkpt lat="46.85831" lon="-1.08507">
        <ele>89</ele>
        <time>2010-01-01T06:35:03Z</time>
      </trkpt>
      <trkpt lat="46.85816" lon="-1.0847">
        <ele>90</ele>
        <time>2010-01-01T06:35:14Z</time>
      </trkpt>
      <trkpt lat="46.85754" lon="-1.08223">
        <ele>92</ele>
        <time>2010-01-01T06:36:26Z</time>
      </trkpt>
      <trkpt lat="46.85745" lon="-1.08176">
        <ele>93</ele>
        <time>2010-01-01T06:36:40Z</time>
      </trkpt>
      <trkpt lat="46.85726" lon="-1.07931">
        <ele>96</ele>
        <time>2010-01-01T06:37:47Z</time>
      </trkpt>
      <trkpt lat="46.85724" lon="-1.07874">
        <ele>96</ele>
        <time>2010-01-01T06:38:03Z</time>
      </trkpt>
      <trkpt lat="46.85729" lon="-1.07755">
        <ele>94</ele>
        <time>2010-01-01T06:38:36Z</time>
      </trkpt>
      <trkpt lat="46.85723" lon="-1.07556">
        <ele>96</ele>
        <time>2010-01-01T06:39:30Z</time>
      </trkpt>
      <trkpt lat="46.85714" lon="-1.07494">
        <ele>97</ele>
        <time>2010-01-01T06:39:47Z</time>
      </trkpt>
      <trkpt lat="46.85674" lon="-1.07307">
        <ele>97</ele>
        <time>2010-01-01T06:40:41Z</time>
      </trkpt>
      <trkpt lat="46.85671" lon="-1.07268">
        <ele>97</ele>
        <time>2010-01-01T06:40:52Z</time>
      </trkpt>
      <trkpt lat="46.8568" lon="-1.07166">
        <ele>100</ele>
        <time>2010-01-01T06:41:20Z</time>
      </trkpt>
      <trkpt lat="46.85714" lon="-1.06998">
        <ele>100</ele>
        <time>2010-01-01T06:42:08Z</time>
      </trkpt>
      <trkpt lat="46.85767" lon="-1.06675">
        <ele>102</ele>
        <time>2010-01-01T06:43:39Z</time>
      </trkpt>
      <trkpt lat="46.85812" lon="-1.06518">
        <ele>101</ele>
        <time>2010-01-01T06:44:25Z</time>
      </trkpt>
      <trkpt lat="46.85819" lon="-1.06238">
        <ele>98</ele>
        <time>2010-01-01T06:45:42Z</time>
      </trkpt>
      <trkpt lat="46.85841" lon="-1.06046">
        <ele>96</ele>
        <time>2010-01-01T06:46:35Z</time>
      </trkpt>
      <trkpt lat="46.85836" lon="-1.05974">
        <ele>94</ele>
        <time>2010-01-01T06:46:55Z</time>
      </trkpt>
      <trkpt lat="46.85764" lon="-1.05719">
        <ele>94</ele>
        <time>2010-01-01T06:48:11Z</time>
      </trkpt>
      <trkpt lat="46.85706" lon="-1.05438">
        <ele>98</ele>
        <time>2010-01-01T06:49:31Z</time>
      </trkpt>
      <trkpt lat="46.85702" lon="-1.05402">
        <ele>99</ele>
        <time>2010-01-01T06:49:41Z</time>
      </trkpt>
      <trkpt lat="46.85704" lon="-1.05354">
        <ele>101</ele>
        <time>2010-01-01T06:49:54Z</time>
      </trkpt>
      <trkpt lat="46.85725" lon="-1.05256">
        <ele>100</ele>
        <time>2010-01-01T06:50:22Z</time>
      </trkpt>
      <trkpt lat="46.85737" lon="-1.05178">
        <ele>99</ele>
        <time>2010-01-01T06:50:44Z</time>
      </trkpt>
      <trkpt lat="46.85748" lon="-1.05028">
        <ele>101</ele>
        <time>2010-01-01T06:51:25Z</time>
      </trkpt>
      <trkpt lat="46.85744" lon="-1.04953">
        <ele>100</ele>
        <time>2010-01-01T06:51:46Z</time>
      </trkpt>
      <trkpt lat="46.85738" lon="-1.04953">
        <ele>100</ele>
        <time>2010-01-01T06:51:48Z</time>
      </trkpt>
      <trkpt lat="46.85733" lon="-1.04943">
        <ele>101</ele>
        <time>2010-01-01T06:51:52Z</time>
      </trkpt>
      <trkpt lat="46.85739" lon="-1.04931">
        <ele>101</ele>
        <time>2010-01-01T06:51:56Z</time>
      </trkpt>
      <trkpt lat="46.85721" lon="-1.04783">
        <ele>104</ele>
        <time>2010-01-01T06:52:37Z</time>
      </trkpt>
      <trkpt lat="46.85737" lon="-1.04669">
        <ele>103</ele>
        <time>2010-01-01T06:53:09Z</time>
      </trkpt>
      <trkpt lat="46.85742" lon="-1.04589">
        <ele>104</ele>
        <time>2010-01-01T06:53:31Z</time>
      </trkpt>
      <trkpt lat="46.85739" lon="-1.04531">
        <ele>105</ele>
        <time>2010-01-01T06:53:47Z</time>
      </trkpt>
      <trkpt lat="46.8573" lon="-1.0449">
        <ele>105</ele>
        <time>2010-01-01T06:53:59Z</time>
      </trkpt>
      <trkpt lat="46.85707" lon="-1.04479">
        <ele>104</ele>
        <time>2010-01-01T06:54:08Z</time>
      </trkpt>
      <trkpt lat="46.85693" lon="-1.04479">
        <ele>104</ele>
        <time>2010-01-01T06:54:14Z</time>
      </trkpt>
      <trkpt lat="46.85686" lon="-1.0447">
        <ele>103</ele>
        <time>2010-01-01T06:54:18Z</time>
      </trkpt>
      <trkpt lat="46.85685" lon="-1.04456">
        <ele>103</ele>
        <time>2010-01-01T06:54:22Z</time>
      </trkpt>
      <trkpt lat="46.85668" lon="-1.0443">
        <ele>102</ele>
        <time>2010-01-01T06:54:31Z</time>
      </trkpt>
      <trkpt lat="46.8557" lon="-1.04343">
        <ele>100</ele>
        <time>2010-01-01T06:55:17Z</time>
      </trkpt>
      <trkpt lat="46.8543" lon="-1.04221">
        <ele>100</ele>
        <time>2010-01-01T06:56:23Z</time>
      </trkpt>
      <trkpt lat="46.85421" lon="-1.04227">
        <ele>100</ele>
        <time>2010-01-01T06:56:26Z</time>
      </trkpt>
      <trkpt lat="46.85414" lon="-1.04217">
        <ele>100</ele>
        <time>2010-01-01T06:56:30Z</time>
      </trkpt>
      <trkpt lat="46.85415" lon="-1.04211">
        <ele>100</ele>
        <time>2010-01-01T06:56:32Z</time>
      </trkpt>
      <trkpt lat="46.85423" lon="-1.04203">
        <ele>100</ele>
        <time>2010-01-01T06:56:36Z</time>
      </trkpt>
      <trkpt lat="46.85585" lon="-1.03812">
        <ele>104</ele>
        <time>2010-01-01T06:58:41Z</time>
      </trkpt>
      <trkpt lat="46.85588" lon="-1.03785">
        <ele>104</ele>
        <time>2010-01-01T06:58:49Z</time>
      </trkpt>
      <trkpt lat="46.8558" lon="-1.03725">
        <ele>104</ele>
        <time>2010-01-01T06:59:05Z</time>
      </trkpt>
      <trkpt lat="46.85571" lon="-1.03704">
        <ele>103</ele>
        <time>2010-01-01T06:59:12Z</time>
      </trkpt>
      <trkpt lat="46.85566" lon="-1.03696">
        <ele>103</ele>
        <time>2010-01-01T06:59:15Z</time>
      </trkpt>
      <trkpt lat="46.85561" lon="-1.03666">
        <ele>101</ele>
        <time>2010-01-01T06:59:24Z</time>
      </trkpt>
      <trkpt lat="46.85701" lon="-1.03624">
        <ele>104</ele>
        <time>2010-01-01T07:00:21Z</time>
      </trkpt>
      <trkpt lat="46.85733" lon="-1.03619">
        <ele>105</ele>
        <time>2010-01-01T07:00:34Z</time>
      </trkpt>
      <trkpt lat="46.85763" lon="-1.03624">
        <ele>104</ele>
        <time>2010-01-01T07:00:46Z</time>
      </trkpt>
      <trkpt lat="46.85856" lon="-1.03674">
        <ele>107</ele>
        <time>2010-01-01T07:01:25Z</time>
      </trkpt>
      <trkpt lat="46.85871" lon="-1.03554">
        <ele>107</ele>
        <time>2010-01-01T07:01:59Z</time>
      </trkpt>
      <trkpt lat="46.85978" lon="-1.03374">
        <ele>109</ele>
        <time>2010-01-01T07:03:04Z</time>
      </trkpt>
      <trkpt lat="46.85971" lon="-1.03384">
        <ele>110</ele>
        <time>2010-01-01T07:03:08Z</time>
      </trkpt>
      <trkpt lat="46.85959" lon="-1.03358">
        <ele>110</ele>
        <time>2010-01-01T07:03:17Z</time>
      </trkpt>
      <trkpt lat="46.85902" lon="-1.03152">
        <ele>108</ele>
        <time>2010-01-01T07:04:17Z</time>
      </trkpt>
      <trkpt lat="46.85888" lon="-1.03048">
        <ele>109</ele>
        <time>2010-01-01T07:04:46Z</time>
      </trkpt>
      <trkpt lat="46.85856" lon="-1.02913">
        <ele>108</ele>
        <time>2010-01-01T07:05:26Z</time>
      </trkpt>
      <trkpt lat="46.85831" lon="-1.02743">
        <ele>108</ele>
        <time>2010-01-01T07:06:13Z</time>
      </trkpt>
      <trkpt lat="46.85825" lon="-1.02727">
        <ele>108</ele>
        <time>2010-01-01T07:06:18Z</time>
      </trkpt>
      <trkpt lat="46.85798" lon="-1.02686">
        <ele>108</ele>
        <time>2010-01-01T07:06:34Z</time>
      </trkpt>
      <trkpt lat="46.85792" lon="-1.02675">
        <ele>109</ele>
        <time>2010-01-01T07:06:38Z</time>
      </trkpt>
      <trkpt lat="46.85798" lon="-1.02686">
        <ele>108</ele>
        <time>2010-01-01T07:06:41Z</time>
      </trkpt>
      <trkpt lat="46.85799" lon="-1.02655">
        <ele>110</ele>
        <time>2010-01-01T07:06:50Z</time>
      </trkpt>
      <trkpt lat="46.85804" lon="-1.02642">
        <ele>110</ele>
        <time>2010-01-01T07:06:54Z</time>
      </trkpt>
      <trkpt lat="46.8594" lon="-1.02488">
        <ele>112</ele>
        <time>2010-01-01T07:08:03Z</time>
      </trkpt>
      <trkpt lat="46.85936" lon="-1.02476">
        <ele>112</ele>
        <time>2010-01-01T07:08:06Z</time>
      </trkpt>
      <trkpt lat="46.85941" lon="-1.02452">
        <ele>112</ele>
        <time>2010-01-01T07:08:13Z</time>
      </trkpt>
      <trkpt lat="46.85842" lon="-1.02274">
        <ele>111</ele>
        <time>2010-01-01T07:09:16Z</time>
      </trkpt>
      <trkpt lat="46.85834" lon="-1.02273">
        <ele>110</ele>
        <time>2010-01-01T07:09:19Z</time>
      </trkpt>
      <trkpt lat="46.85832" lon="-1.0226">
        <ele>110</ele>
        <time>2010-01-01T07:09:23Z</time>
      </trkpt>
      <trkpt lat="46.85836" lon="-1.02254">
        <ele>110</ele>
        <time>2010-01-01T07:09:25Z</time>
      </trkpt>
      <trkpt lat="46.85843" lon="-1.02256">
        <ele>110</ele>
        <time>2010-01-01T07:09:28Z</time>
      </trkpt>
      <trkpt lat="46.85902" lon="-1.02149">
        <ele>109</ele>
        <time>2010-01-01T07:10:06Z</time>
      </trkpt>
      <trkpt lat="46.85907" lon="-1.02092">
        <ele>108</ele>
        <time>2010-01-01T07:10:22Z</time>
      </trkpt>
      <trkpt lat="46.85943" lon="-1.0203">
        <ele>109</ele>
        <time>2010-01-01T07:10:44Z</time>
      </trkpt>
      <trkpt lat="46.86006" lon="-1.01964">
        <ele>114</ele>
        <time>2010-01-01T07:11:15Z</time>
      </trkpt>
      <trkpt lat="46.86091" lon="-1.01918">
        <ele>114</ele>
        <time>2010-01-01T07:11:51Z</time>
      </trkpt>
      <trkpt lat="46.86107" lon="-1.01881">
        <ele>112</ele>
        <time>2010-01-01T07:12:03Z</time>
      </trkpt>
      <trkpt lat="46.86126" lon="-1.01851">
        <ele>113</ele>
        <time>2010-01-01T07:12:14Z</time>
      </trkpt>
      <trkpt lat="46.86132" lon="-1.01701">
        <ele>114</ele>
        <time>2010-01-01T07:12:55Z</time>
      </trkpt>
      <trkpt lat="46.86078" lon="-1.01606">
        <ele>111</ele>
        <time>2010-01-01T07:13:29Z</time>
      </trkpt>
      <trkpt lat="46.85982" lon="-1.01383">
        <ele>111</ele>
        <time>2010-01-01T07:14:41Z</time>
      </trkpt>
      <trkpt lat="46.85946" lon="-1.01297">
        <ele>112</ele>
        <time>2010-01-01T07:15:09Z</time>
      </trkpt>
      <trkpt lat="46.85946" lon="-1.01207">
        <ele>113</ele>
        <time>2010-01-01T07:15:34Z</time>
      </trkpt>
      <trkpt lat="46.8599" lon="-1.01145">
        <ele>114</ele>
        <time>2010-01-01T07:15:58Z</time>
      </trkpt>
      <trkpt lat="46.86016" lon="-1.01089">
        <ele>113</ele>
        <time>2010-01-01T07:16:17Z</time>
      </trkpt>
      <trkpt lat="46.86032" lon="-1.01036">
        <ele>115</ele>
        <time>2010-01-01T07:16:33Z</time>
      </trkpt>
      <trkpt lat="46.86036" lon="-1.01039">
        <ele>115</ele>
        <time>2010-01-01T07:16:34Z</time>
      </trkpt>
      <trkpt lat="46.86038" lon="-1.01032">
        <ele>115</ele>
        <time>2010-01-01T07:16:37Z</time>
      </trkpt>
      <trkpt lat="46.86011" lon="-1.01013">
        <ele>114</ele>
        <time>2010-01-01T07:16:49Z</time>
      </trkpt>
      <trkpt lat="46.85968" lon="-1.00987">
        <ele>113</ele>
        <time>2010-01-01T07:17:07Z</time>
      </trkpt>
      <trkpt lat="46.85955" lon="-1.00985">
        <ele>113</ele>
        <time>2010-01-01T07:17:12Z</time>
      </trkpt>
      <trkpt lat="46.85949" lon="-1.00984">
        <ele>113</ele>
        <time>2010-01-01T07:17:15Z</time>
      </trkpt>
      <trkpt lat="46.85946" lon="-1.00979">
        <ele>113</ele>
        <time>2010-01-01T07:17:17Z</time>
      </trkpt>
      <trkpt lat="46.85946" lon="-1.00974">
        <ele>113</ele>
        <time>2010-01-01T07:17:18Z</time>
      </trkpt>
      <trkpt lat="46.85947" lon="-1.0097">
        <ele>113</ele>
        <time>2010-01-01T07:17:19Z</time>
      </trkpt>
      <trkpt lat="46.85962" lon="-1.0095">
        <ele>113</ele>
        <time>2010-01-01T07:17:27Z</time>
      </trkpt>
      <trkpt lat="46.86002" lon="-1.00886">
        <ele>114</ele>
        <time>2010-01-01T07:17:51Z</time>
      </trkpt>
      <trkpt lat="46.86055" lon="-1.00815">
        <ele>115</ele>
        <time>2010-01-01T07:18:20Z</time>
      </trkpt>
      <trkpt lat="46.86094" lon="-1.00769">
        <ele>116</ele>
        <time>2010-01-01T07:18:40Z</time>
      </trkpt>
      <trkpt lat="46.86138" lon="-1.00732">
        <ele>116</ele>
        <time>2010-01-01T07:19:00Z</time>
      </trkpt>
      <trkpt lat="46.86182" lon="-1.00705">
        <ele>117</ele>
        <time>2010-01-01T07:19:19Z</time>
      </trkpt>
      <trkpt lat="46.86234" lon="-1.00681">
        <ele>118</ele>
        <time>2010-01-01T07:19:41Z</time>
      </trkpt>
      <trkpt lat="46.8627" lon="-1.00662">
        <ele>118</ele>
        <time>2010-01-01T07:19:56Z</time>
      </trkpt>
      <trkpt lat="46.86315" lon="-1.00632">
        <ele>120</ele>
        <time>2010-01-01T07:20:16Z</time>
      </trkpt>
      <trkpt lat="46.86335" lon="-1.00614">
        <ele>121</ele>
        <time>2010-01-01T07:20:26Z</time>
      </trkpt>
      <trkpt lat="46.86381" lon="-1.00562">
        <ele>120</ele>
        <time>2010-01-01T07:20:49Z</time>
      </trkpt>
      <trkpt lat="46.86392" lon="-1.00554">
        <ele>120</ele>
        <time>2010-01-01T07:20:54Z</time>
      </trkpt>
      <trkpt lat="46.86462" lon="-1.00555">
        <ele>122</ele>
        <time>2010-01-01T07:21:22Z</time>
      </trkpt>
      <trkpt lat="46.86478" lon="-1.00558">
        <ele>121</ele>
        <time>2010-01-01T07:21:28Z</time>
      </trkpt>
    </trkseg>
  </trk>
</gpx>